Observation data for Adrian on 04/22/2019      Previous  Date       Current Mesonet Observations  Soil Data  Daily Summary Page  Observations in Plain Language
KAD1 220500Z 26007KT 19/M06 A2992 RMK A01 T01861055  RH  019%=      5-min Rain = 0
KAD1 220501Z 25006KT 19/M06 A2992 RMK A01 T01851057  RH  019%=      5-min Rain = 0
KAD1 220502Z 25006KT 18/M06 A2992 RMK A01 T01841055  RH  019%=      5-min Rain = 0
KAD1 220503Z 25007KT 18/M06 A2992 RMK A01 T01831058  RH  019%=      5-min Rain = 0
KAD1 220504Z 26007KT 18/M06 A2992 RMK A01 T01841057  RH  019%=      5-min Rain = 0
KAD1 220505Z 25007KT 19/M06 A2992 RMK A01 T01851056  RH  019%=      5-min Rain = 0
KAD1 220506Z 26007KT 19/M06 A2992 RMK A01 T01851058  RH  019%=      5-min Rain = 0
KAD1 220507Z 26007KT 19/M06 A2992 RMK A01 T01861057  RH  019%=      5-min Rain = 0
KAD1 220508Z 26007KT 19/M06 A2992 RMK A01 T01861055  RH  019%=      5-min Rain = 0
KAD1 220509Z 26007KT 18/M06 A2992 RMK A01 T01841055  RH  019%=      5-min Rain = 0
KAD1 220510Z 26007KT 18/M05 A2992 RMK A01 T01831052  RH  020%=      5-min Rain = 0
KAD1 220511Z 26007KT 18/M05 A2992 RMK A01 T01821054  RH  020%=      5-min Rain = 0
KAD1 220512Z 26007KT 18/M06 A2992 RMK A01 T01811055  RH  020%=      5-min Rain = 0
KAD1 220513Z 26008KT 18/M05 A2992 RMK A01 T01811052  RH  020%=      5-min Rain = 0
KAD1 220514Z 26008KT 18/M05 A2992 RMK A01 T01791052  RH  020%=      5-min Rain = 0
KAD1 220515Z 25007KT 18/M05 A2992 RMK A01 T01781052  RH  020%=      5-min Rain = 0
KAD1 220516Z 25008KT 18/M05 A2992 RMK A01 T01771050  RH  021%=      5-min Rain = 0
KAD1 220517Z 26008KT 18/M05 A2992 RMK A01 T01761052  RH  021%=      5-min Rain = 0
KAD1 220518Z 26008KT 18/M05 A2992 RMK A01 T01761053  RH  020%=      5-min Rain = 0
KAD1 220519Z 26007KT 18/M05 A2993 RMK A01 T01771051  RH  021%=      5-min Rain = 0
KAD1 220520Z 26007KT 17/M05 A2993 RMK A01 T01741048  RH  022%=      5-min Rain = 0
KAD1 220521Z 26007KT 17/M05 A2993 RMK A01 T01731050  RH  021%=      5-min Rain = 0
KAD1 220522Z 25007KT 17/M05 A2993 RMK A01 T01741050  RH  021%=      5-min Rain = 0
KAD1 220523Z 25007KT 17/M05 A2993 RMK A01 T01741048  RH  022%=      5-min Rain = 0
KAD1 220524Z 25007KT 17/M05 A2993 RMK A01 T01741049  RH  021%=      5-min Rain = 0
KAD1 220525Z 25007KT 17/M05 A2993 RMK A01 T01731048  RH  022%=      5-min Rain = 0
KAD1 220526Z 25007KT 17/M05 A2993 RMK A01 T01721048  RH  022%=      5-min Rain = 0
KAD1 220527Z 25007KT 17/M05 A2993 RMK A01 T01701050  RH  022%=      5-min Rain = 0
KAD1 220528Z 25007KT 17/M05 A2993 RMK A01 T01701052  RH  021%=      5-min Rain = 0
KAD1 220529Z 25007KT 17/M06 A2993 RMK A01 T01721055  RH  021%=      5-min Rain = 0
KAD1 220530Z 25007KT 17/M05 A2993 RMK A01 T01731052  RH  021%=      5-min Rain = 0
KAD1 220531Z 25006KT 17/M05 A2993 RMK A01 T01721052  RH  021%=      5-min Rain = 0
KAD1 220532Z 25006KT 17/M05 A2993 RMK A01 T01731053  RH  021%=      5-min Rain = 0
KAD1 220533Z 25006KT 17/M05 A2993 RMK A01 T01721046  RH  022%=      5-min Rain = 0
KAD1 220534Z 26006KT 17/M06 A2993 RMK A01 T01711058  RH  020%=      5-min Rain = 0
KAD1 220535Z 26006KT 18/M06 A2993 RMK A01 T01751056  RH  020%=      5-min Rain = 0
KAD1 220536Z 26006KT 18/M05 A2993 RMK A01 T01761054  RH  020%=      5-min Rain = 0
KAD1 220537Z 26006KT 18/M05 A2993 RMK A01 T01751051  RH  021%=      5-min Rain = 0
KAD1 220538Z 26006KT 17/M06 A2993 RMK A01 T01731055  RH  020%=      5-min Rain = 0
KAD1 220539Z 26005KT 18/M06 A2993 RMK A01 T01761057  RH  020%=      5-min Rain = 0
KAD1 220540Z 26005KT 17/M05 A2993 RMK A01 T01731045  RH  022%=      5-min Rain = 0
KAD1 220541Z 26005KT 17/M05 A2993 RMK A01 T01681050  RH  022%=      5-min Rain = 0
KAD1 220542Z 26005KT 17/M05 A2993 RMK A01 T01671046  RH  023%=      5-min Rain = 0
KAD1 220543Z 27004KT 17/M05 A2993 RMK A01 T01651052  RH  022%=      5-min Rain = 0
KAD1 220544Z 27004KT 17/M06 A2993 RMK A01 T01701063  RH  020%=      5-min Rain = 0
KAD1 220545Z 27004KT 18/M06 A2994 RMK A01 T01771063  RH  019%=      5-min Rain = 0
KAD1 220546Z 27004KT 18/M06 A2994 RMK A01 T01811064  RH  018%=      5-min Rain = 0
KAD1 220547Z 27004KT 18/M06 A2994 RMK A01 T01841061  RH  018%=      5-min Rain = 0
KAD1 220548Z 27004KT 18/M06 A2994 RMK A01 T01841063  RH  018%=      5-min Rain = 0
KAD1 220549Z 28004KT 18/M06 A2994 RMK A01 T01841063  RH  018%=      5-min Rain = 0
KAD1 220550Z 28004KT 19/M07 A2994 RMK A01 T01851066  RH  017%=      5-min Rain = 0
KAD1 220551Z 28004KT 19/M07 A2994 RMK A01 T01881067  RH  017%=      5-min Rain = 0
KAD1 220552Z 28004KT 19/M07 A2994 RMK A01 T01911068  RH  017%=      5-min Rain = 0
KAD1 220553Z 29004KT 19/M07 A2994 RMK A01 T01941068  RH  016%=      5-min Rain = 0
KAD1 220554Z 29005KT 20/M07 A2994 RMK A01 T01961066  RH  016%=      5-min Rain = 0
KAD1 220555Z 29004KT 20/M07 A2994 RMK A01 T01961067  RH  016%=      5-min Rain = 0
KAD1 220556Z 29004KT 20/M07 A2994 RMK A01 T01981068  RH  016%=      5-min Rain = 0
KAD1 220557Z 29004KT 20/M07 A2994 RMK A01 T01991069  RH  016%=      5-min Rain = 0
KAD1 220558Z 29004KT 20/M07 A2994 RMK A01 T01991068  RH  016%=      5-min Rain = 0
KAD1 220559Z 29004KT 20/M07 A2994 RMK A01 T01991067  RH  016%=      5-min Rain = 0
KAD1 220600Z 30005KT 20/M07 A2994 RMK A01 T01991065  RH  016%=      5-min Rain = 0
KAD1 220601Z 30004KT 20/M07 A2994 RMK A01 T01981065  RH  016%=      5-min Rain = 0
KAD1 220602Z 30004KT 20/M06 A2994 RMK A01 T01971064  RH  016%=      5-min Rain = 0
KAD1 220603Z 30004KT 20/M06 A2994 RMK A01 T01971063  RH  017%=      5-min Rain = 0
KAD1 220604Z 30004KT 20/M06 A2994 RMK A01 T01961064  RH  017%=      5-min Rain = 0
KAD1 220605Z 30004KT 20/M06 A2994 RMK A01 T01971063  RH  017%=      5-min Rain = 0
KAD1 220606Z 31003KT 20/M06 A2994 RMK A01 T01971064  RH  017%=      5-min Rain = 0
KAD1 220607Z 31004KT 20/M07 A2994 RMK A01 T01981065  RH  016%=      5-min Rain = 0
KAD1 220608Z 31004KT 20/M07 A2994 RMK A01 T01981065  RH  016%=      5-min Rain = 0
KAD1 220609Z 32004KT 20/M07 A2994 RMK A01 T01981065  RH  016%=      5-min Rain = 0
KAD1 220610Z 34005KT 20/M07 A2995 RMK A01 T01991066  RH  016%=      5-min Rain = 0
KAD1 220611Z 35011G16KT 20/M06 A2995 RMK A01 T01991060  RH  017%=      5-min Rain = 0
KAD1 220612Z 00015KT 20/M05 A2995 RMK A01 T01951051  RH  018%=      5-min Rain = 0
KAD1 220613Z 00011KT 20/M05 A2995 RMK A01 T01951049  RH  019%=      5-min Rain = 0
KAD1 220614Z 35010KT 19/M04 A2995 RMK A01 T01931044  RH  020%=      5-min Rain = 0
KAD1 220615Z 35009KT 19/M04 A2995 RMK A01 T01891041  RH  021%=      5-min Rain = 0
KAD1 220616Z 35010KT 19/M04 A2996 RMK A01 T01851039  RH  021%=      5-min Rain = 0
KAD1 220617Z 00012KT 18/M04 A2996 RMK A01 T01821038  RH  022%=      5-min Rain = 0
KAD1 220618Z 36013KT 18/M04 A2996 RMK A01 T01791036  RH  023%=      5-min Rain = 0
KAD1 220619Z 00013KT 18/M04 A2996 RMK A01 T01771036  RH  023%=      5-min Rain = 0
KAD1 220620Z 00014KT 18/M03 A2996 RMK A01 T01751034  RH  024%=      5-min Rain = 0
KAD1 220621Z 00013KT 17/M03 A2996 RMK A01 T01731033  RH  024%=      5-min Rain = 0
KAD1 220622Z 00013KT 17/M03 A2996 RMK A01 T01701032  RH  025%=      5-min Rain = 0
KAD1 220623Z 36013KT 17/M03 A2997 RMK A01 T01671030  RH  026%=      5-min Rain = 0
KAD1 220624Z 01013KT 16/M03 A2997 RMK A01 T01641025  RH  027%=      5-min Rain = 0
KAD1 220625Z 01013KT 16/M02 A2997 RMK A01 T01601023  RH  028%=      5-min Rain = 0
KAD1 220626Z 01013KT 16/M02 A2997 RMK A01 T01591022  RH  029%=      5-min Rain = 0
KAD1 220627Z 01015KT 16/M01 A2997 RMK A01 T01571014  RH  031%=      5-min Rain = 0
KAD1 220628Z 01014KT 16/M01 A2997 RMK A01 T01561007  RH  033%=      5-min Rain = 0
KAD1 220629Z 02014KT 15/M00 A2997 RMK A01 T01541002  RH  034%=      5-min Rain = 0
KAD1 220630Z 01012KT 15/00 A2997 RMK A01 T01530001  RH  035%=      5-min Rain = 0
KAD1 220631Z 02012KT 15/00 A2997 RMK A01 T01520002  RH  036%=      5-min Rain = 0
KAD1 220632Z 02012KT 15/00 A2997 RMK A01 T01510003  RH  036%=      5-min Rain = 0
KAD1 220633Z 02012KT 15/00 A2997 RMK A01 T01500004  RH  037%=      5-min Rain = 0
KAD1 220634Z 02012KT 15/00 A2997 RMK A01 T01490001  RH  036%=      5-min Rain = 0
KAD1 220635Z 02011KT 15/00 A2997 RMK A01 T014600-0  RH  037%=      5-min Rain = 0
KAD1 220636Z 02010KT 14/00 A2997 RMK A01 T01430000  RH  037%=      5-min Rain = 0
KAD1 220637Z 02011KT 14/00 A2997 RMK A01 T01420001  RH  038%=      5-min Rain = 0
KAD1 220638Z 02011KT 14/00 A2997 RMK A01 T01410003  RH  039%=      5-min Rain = 0
KAD1 220639Z 03011KT 14/00 A2997 RMK A01 T01400003  RH  039%=      5-min Rain = 0
KAD1 220640Z 03012KT 14/00 A2997 RMK A01 T01390004  RH  040%=      5-min Rain = 0
KAD1 220641Z 03013KT 14/01 A2997 RMK A01 T01380010  RH  042%=      5-min Rain = 0
KAD1 220642Z 03014KT 14/02 A2997 RMK A01 T01380016  RH  044%=      5-min Rain = 0
KAD1 220643Z 03014KT 14/02 A2998 RMK A01 T01380019  RH  045%=      5-min Rain = 0
KAD1 220644Z 03013KT 14/02 A2998 RMK A01 T01380023  RH  046%=      5-min Rain = 0
KAD1 220645Z 04013KT 14/02 A2998 RMK A01 T01360024  RH  047%=      5-min Rain = 0
KAD1 220646Z 04014KT 14/03 A2998 RMK A01 T01350025  RH  047%=      5-min Rain = 0
KAD1 220647Z 03013KT 13/03 A2998 RMK A01 T01340027  RH  048%=      5-min Rain = 0
KAD1 220648Z 04014KT 13/03 A2998 RMK A01 T01340029  RH  049%=      5-min Rain = 0
KAD1 220649Z 04013KT 13/03 A2998 RMK A01 T01340030  RH  049%=      5-min Rain = 0
KAD1 220650Z 03014KT 13/03 A2998 RMK A01 T01330031  RH  050%=      5-min Rain = 0
KAD1 220651Z 04015KT 13/03 A2998 RMK A01 T01340033  RH  050%=      5-min Rain = 0
KAD1 220652Z 04016KT 13/04 A2998 RMK A01 T01340035  RH  051%=      5-min Rain = 0
KAD1 220653Z 04014KT 14/04 A2998 RMK A01 T01350037  RH  051%=      5-min Rain = 0
KAD1 220654Z 04014KT 14/04 A2998 RMK A01 T01350037  RH  051%=      5-min Rain = 0
KAD1 220655Z 03014KT 13/04 A2998 RMK A01 T01340037  RH  052%=      5-min Rain = 0
KAD1 220656Z 03015KT 13/04 A2998 RMK A01 T01330038  RH  052%=      5-min Rain = 0
KAD1 220657Z 03014KT 13/04 A2998 RMK A01 T01330038  RH  053%=      5-min Rain = 0
KAD1 220658Z 04013KT 13/04 A2998 RMK A01 T01330038  RH  053%=      5-min Rain = 0
KAD1 220659Z 04014KT 13/04 A2998 RMK A01 T01320038  RH  053%=      5-min Rain = 0
KAD1 220700Z 03013KT 13/04 A2998 RMK A01 T01320039  RH  053%=      5-min Rain = 0
KAD1 220701Z 04015KT 13/04 A2998 RMK A01 T01310039  RH  054%=      5-min Rain = 0
KAD1 220702Z 04015KT 13/04 A2998 RMK A01 T01310041  RH  054%=      5-min Rain = 0
KAD1 220703Z 04014KT 13/04 A2998 RMK A01 T01320043  RH  055%=      5-min Rain = 0
KAD1 220704Z 04014KT 13/04 A2998 RMK A01 T01310043  RH  055%=      5-min Rain = 0
KAD1 220705Z 04015KT 13/04 A2998 RMK A01 T01310044  RH  055%=      5-min Rain = 0
KAD1 220706Z 04011KT 13/04 A2998 RMK A01 T01310044  RH  055%=      5-min Rain = 0
KAD1 220707Z 04012KT 13/04 A2998 RMK A01 T01300043  RH  056%=      5-min Rain = 0
KAD1 220708Z 04011KT 13/04 A2998 RMK A01 T01290043  RH  056%=      5-min Rain = 0
KAD1 220709Z 03011KT 13/04 A2998 RMK A01 T01280044  RH  056%=      5-min Rain = 0
KAD1 220710Z 04011KT 13/04 A2998 RMK A01 T01280044  RH  057%=      5-min Rain = 0
KAD1 220711Z 04013KT 13/04 A2998 RMK A01 T01260044  RH  057%=      5-min Rain = 0
KAD1 220712Z 03013KT 13/05 A2998 RMK A01 T01250045  RH  058%=      5-min Rain = 0
KAD1 220713Z 03012KT 13/05 A2998 RMK A01 T01260046  RH  058%=      5-min Rain = 0
KAD1 220714Z 03012G20KT 13/05 A2998 RMK A01 T01270046  RH  058%=      5-min Rain = 0
KAD1 220715Z 04017KT 13/05 A2998 RMK A01 T01280047  RH  058%=      5-min Rain = 0
KAD1 220716Z 03015KT 13/05 A2998 RMK A01 T01290048  RH  058%=      5-min Rain = 0
KAD1 220717Z 03015KT 13/05 A2998 RMK A01 T01290048  RH  058%=      5-min Rain = 0
KAD1 220718Z 03016KT 13/05 A2998 RMK A01 T01290049  RH  058%=      5-min Rain = 0
KAD1 220719Z 03015KT 13/05 A2998 RMK A01 T01280050  RH  059%=      5-min Rain = 0
KAD1 220720Z 03017KT 13/05 A2998 RMK A01 T01270050  RH  059%=      5-min Rain = 0
KAD1 220721Z 03015KT 13/05 A2998 RMK A01 T01270050  RH  060%=      5-min Rain = 0
KAD1 220722Z 03014KT 13/05 A2998 RMK A01 T01260050  RH  060%=      5-min Rain = 0
KAD1 220723Z 03014KT 13/05 A2998 RMK A01 T01260050  RH  060%=      5-min Rain = 0
KAD1 220724Z 03016KT 12/05 A2998 RMK A01 T01240050  RH  060%=      5-min Rain = 0
KAD1 220725Z 03013G18KT 12/05 A2998 RMK A01 T01230050  RH  061%=      5-min Rain = 0
KAD1 220726Z 03013KT 12/05 A2998 RMK A01 T01230050  RH  061%=      5-min Rain = 0
KAD1 220727Z 03014KT 12/05 A2998 RMK A01 T01220051  RH  062%=      5-min Rain = 0
KAD1 220728Z 03015KT 12/05 A2998 RMK A01 T01230052  RH  062%=      5-min Rain = 0
KAD1 220729Z 03015KT 12/05 A2998 RMK A01 T01230052  RH  062%=      5-min Rain = 0
KAD1 220730Z 03016KT 12/05 A2998 RMK A01 T01240053  RH  062%=      5-min Rain = 0
KAD1 220731Z 03017KT 12/05 A2998 RMK A01 T01240053  RH  062%=      5-min Rain = 0
KAD1 220732Z 03016KT 13/05 A2998 RMK A01 T01250054  RH  062%=      5-min Rain = 0
KAD1 220733Z 03018KT 12/05 A2998 RMK A01 T01240054  RH  062%=      5-min Rain = 0
KAD1 220734Z 03015KT 12/05 A2998 RMK A01 T01240054  RH  062%=      5-min Rain = 0
KAD1 220735Z 03016KT 12/05 A2999 RMK A01 T01230054  RH  063%=      5-min Rain = 0
KAD1 220736Z 03014KT 12/05 A2999 RMK A01 T01230054  RH  063%=      5-min Rain = 0
KAD1 220737Z 03014KT 12/05 A2999 RMK A01 T01220054  RH  063%=      5-min Rain = 0
KAD1 220738Z 03015KT 12/05 A2999 RMK A01 T01210054  RH  064%=      5-min Rain = 0
KAD1 220739Z 03016KT 12/06 A2999 RMK A01 T01210055  RH  064%=      5-min Rain = 0
KAD1 220740Z 03016KT 12/06 A2999 RMK A01 T01210055  RH  064%=      5-min Rain = 0
KAD1 220741Z 03015KT 12/06 A2999 RMK A01 T01210055  RH  064%=      5-min Rain = 0
KAD1 220742Z 03014KT 12/06 A2999 RMK A01 T01210055  RH  064%=      5-min Rain = 0
KAD1 220743Z 02016KT 12/06 A2999 RMK A01 T01200055  RH  064%=      5-min Rain = 0
KAD1 220744Z 03016KT 12/06 A2999 RMK A01 T01200055  RH  064%=      5-min Rain = 0
KAD1 220745Z 03015KT 12/06 A2999 RMK A01 T01200055  RH  064%=      5-min Rain = 0
KAD1 220746Z 03016KT 12/06 A2999 RMK A01 T01200055  RH  064%=      5-min Rain = 0
KAD1 220747Z 02014KT 12/06 A2999 RMK A01 T01190055  RH  065%=      5-min Rain = 0
KAD1 220748Z 03016KT 12/06 A2999 RMK A01 T01190055  RH  065%=      5-min Rain = 0
KAD1 220749Z 03015KT 12/06 A2999 RMK A01 T01180055  RH  065%=      5-min Rain = 0
KAD1 220750Z 03015KT 12/06 A2999 RMK A01 T01180055  RH  065%=      5-min Rain = 0
KAD1 220751Z 02017KT 12/06 A2999 RMK A01 T01180055  RH  065%=      5-min Rain = 0
KAD1 220752Z 03016KT 12/06 A2999 RMK A01 T01190055  RH  065%=      5-min Rain = 0
KAD1 220753Z 03017KT 12/06 A2999 RMK A01 T01190055  RH  065%=      5-min Rain = 0
KAD1 220754Z 02016KT 12/06 A2999 RMK A01 T01190055  RH  065%=      5-min Rain = 0
KAD1 220755Z 02016KT 12/06 A2999 RMK A01 T01190055  RH  065%=      5-min Rain = 0
KAD1 220756Z 02017KT 12/06 A2999 RMK A01 T01190055  RH  065%=      5-min Rain = 0
KAD1 220757Z 03015KT 12/06 A2999 RMK A01 T01190055  RH  065%=      5-min Rain = 0
KAD1 220758Z 03017KT 12/06 A2999 RMK A01 T01180055  RH  065%=      5-min Rain = 0
KAD1 220759Z 03016KT 12/06 A2999 RMK A01 T01180055  RH  065%=      5-min Rain = 0
KAD1 220800Z 03016KT 12/06 A2999 RMK A01 T01170055  RH  065%=      5-min Rain = 0
KAD1 220801Z 03015KT 12/06 A2999 RMK A01 T01170055  RH  066%=      5-min Rain = 0
KAD1 220802Z 03015KT 12/06 A2999 RMK A01 T01160055  RH  066%=      5-min Rain = 0
KAD1 220803Z 03016KT 12/06 A2999 RMK A01 T01160055  RH  066%=      5-min Rain = 0
KAD1 220804Z 03015KT 12/06 A2999 RMK A01 T01150055  RH  066%=      5-min Rain = 0
KAD1 220805Z 03015KT 12/06 A2999 RMK A01 T01150055  RH  066%=      5-min Rain = 0
KAD1 220806Z 03014KT 12/05 A30 RMK A01 T01150054  RH  066%=      5-min Rain = 0
KAD1 220807Z 02014KT 12/05 A30 RMK A01 T01150054  RH  066%=      5-min Rain = 0
KAD1 220808Z 03013KT 12/05 A30 RMK A01 T01150054  RH  066%=      5-min Rain = 0
KAD1 220809Z 02012KT 12/06 A30 RMK A01 T01150055  RH  066%=      5-min Rain = 0
KAD1 220810Z 03012KT 11/05 A30 RMK A01 T01140054  RH  066%=      5-min Rain = 0
KAD1 220811Z 03011KT 11/05 A30 RMK A01 T01140054  RH  067%=      5-min Rain = 0
KAD1 220812Z 03012KT 11/05 A30 RMK A01 T01130054  RH  067%=      5-min Rain = 0
KAD1 220813Z 03012KT 11/05 A30 RMK A01 T01120054  RH  067%=      5-min Rain = 0
KAD1 220814Z 03011KT 11/05 A30 RMK A01 T01120054  RH  067%=      5-min Rain = 0
KAD1 220815Z 02013KT 11/05 A30 RMK A01 T01110054  RH  068%=      5-min Rain = 0
KAD1 220816Z 02012KT 11/05 A30 RMK A01 T01120054  RH  068%=      5-min Rain = 0
KAD1 220817Z 02014KT 11/05 A30 RMK A01 T01130054  RH  067%=      5-min Rain = 0
KAD1 220818Z 02011KT 11/05 A30 RMK A01 T01140054  RH  067%=      5-min Rain = 0
KAD1 220819Z 02012KT 11/05 A30 RMK A01 T01140054  RH  067%=      5-min Rain = 0
KAD1 220820Z 02012KT 11/05 A30 RMK A01 T01140054  RH  067%=      5-min Rain = 0
KAD1 220821Z 03011KT 11/05 A30 RMK A01 T01140054  RH  067%=      5-min Rain = 0
KAD1 220822Z 02011KT 11/05 A30 RMK A01 T01130053  RH  067%=      5-min Rain = 0
KAD1 220823Z 02013KT 11/05 A30 RMK A01 T01120053  RH  067%=      5-min Rain = 0
KAD1 220824Z 03014KT 11/05 A30 RMK A01 T01120053  RH  067%=      5-min Rain = 0
KAD1 220825Z 02013KT 11/05 A30 RMK A01 T01120053  RH  067%=      5-min Rain = 0
KAD1 220826Z 03014KT 11/05 A30 RMK A01 T01120053  RH  067%=      5-min Rain = 0
KAD1 220827Z 03015KT 11/05 A30 RMK A01 T01120053  RH  067%=      5-min Rain = 0
KAD1 220828Z 03014KT 11/05 A30 RMK A01 T01130053  RH  067%=      5-min Rain = 0
KAD1 220829Z 03014KT 11/05 A30 RMK A01 T01130053  RH  066%=      5-min Rain = 0
KAD1 220830Z 03014KT 11/05 A30 RMK A01 T01120052  RH  067%=      5-min Rain = 0
KAD1 220831Z 03014KT 11/05 A30 RMK A01 T01120052  RH  067%=      5-min Rain = 0
KAD1 220832Z 03014KT 11/05 A30 RMK A01 T01110053  RH  067%=      5-min Rain = 0
KAD1 220833Z 03014KT 11/05 A30 RMK A01 T01110052  RH  067%=      5-min Rain = 0
KAD1 220834Z 03015KT 11/05 A30 RMK A01 T01100052  RH  067%=      5-min Rain = 0
KAD1 220835Z 03016KT 11/05 A30 RMK A01 T01100052  RH  068%=      5-min Rain = 0
KAD1 220836Z 03016KT 11/05 A30 RMK A01 T01100052  RH  067%=      5-min Rain = 0
KAD1 220837Z 03016KT 11/05 A30 RMK A01 T01110052  RH  067%=      5-min Rain = 0
KAD1 220838Z 02016KT 11/05 A30 RMK A01 T01100052  RH  067%=      5-min Rain = 0
KAD1 220839Z 03016KT 11/05 A30 RMK A01 T01100053  RH  068%=      5-min Rain = 0
KAD1 220840Z 03014KT 11/05 A30 RMK A01 T01090052  RH  068%=      5-min Rain = 0
KAD1 220841Z 02016KT 11/05 A30 RMK A01 T01090053  RH  068%=      5-min Rain = 0
KAD1 220842Z 03014KT 11/05 A30 RMK A01 T01090053  RH  068%=      5-min Rain = 0
KAD1 220843Z 02015KT 11/05 A30 RMK A01 T01090052  RH  068%=      5-min Rain = 0
KAD1 220844Z 03014KT 11/05 A30 RMK A01 T01080052  RH  068%=      5-min Rain = 0
KAD1 220845Z 02013KT 11/05 A30 RMK A01 T01080052  RH  068%=      5-min Rain = 0
KAD1 220846Z 02013KT 11/05 A30 RMK A01 T01080052  RH  069%=      5-min Rain = 0
KAD1 220847Z 02015KT 11/05 A30 RMK A01 T01070052  RH  069%=      5-min Rain = 0
KAD1 220848Z 03015KT 11/05 A30 RMK A01 T01070052  RH  069%=      5-min Rain = 0
KAD1 220849Z 03014KT 11/05 A30 RMK A01 T01070052  RH  069%=      5-min Rain = 0
KAD1 220850Z 02015KT 11/05 A30 RMK A01 T01070052  RH  069%=      5-min Rain = 0
KAD1 220851Z 03016KT 11/05 A30 RMK A01 T01080052  RH  068%=      5-min Rain = 0
KAD1 220852Z 03017KT 11/05 A30 RMK A01 T01080052  RH  068%=      5-min Rain = 0
KAD1 220853Z 03016KT 11/05 A30 RMK A01 T01080052  RH  068%=      5-min Rain = 0
KAD1 220854Z 03017KT 11/05 A30 RMK A01 T01080051  RH  068%=      5-min Rain = 0
KAD1 220855Z 03016KT 11/05 A30 RMK A01 T01080051  RH  068%=      5-min Rain = 0
KAD1 220856Z 03015KT 11/05 A30 RMK A01 T01080051  RH  068%=      5-min Rain = 0
KAD1 220857Z 03016G21KT 11/05 A30 RMK A01 T01070051  RH  068%=      5-min Rain = 0
KAD1 220858Z 03016KT 11/05 A30 RMK A01 T01070051  RH  068%=      5-min Rain = 0
KAD1 220859Z 03014KT 11/05 A30 RMK A01 T01060050  RH  068%=      5-min Rain = 0
KAD1 220900Z 03014KT 11/05 A30 RMK A01 T01050050  RH  069%=      5-min Rain = 0
KAD1 220901Z 03014KT 11/05 A3001 RMK A01 T01050050  RH  069%=      5-min Rain = 0
KAD1 220902Z 03016KT 10/05 A3001 RMK A01 T01040050  RH  069%=      5-min Rain = 0
KAD1 220903Z 03015KT 10/05 A3001 RMK A01 T01040050  RH  069%=      5-min Rain = 0
KAD1 220904Z 04017KT 11/05 A3001 RMK A01 T01050050  RH  069%=      5-min Rain = 0
KAD1 220905Z 04016KT 11/05 A3001 RMK A01 T01050049  RH  068%=      5-min Rain = 0
KAD1 220906Z 04016KT 11/05 A3001 RMK A01 T01050049  RH  069%=      5-min Rain = 0
KAD1 220907Z 03016KT 11/05 A3001 RMK A01 T01050049  RH  068%=      5-min Rain = 0
KAD1 220908Z 04017KT 10/05 A3001 RMK A01 T01040049  RH  068%=      5-min Rain = 0
KAD1 220909Z 03018KT 11/05 A3001 RMK A01 T01050049  RH  068%=      5-min Rain = 0
KAD1 220910Z 03016G21KT 11/05 A3001 RMK A01 T01050049  RH  068%=      5-min Rain = 0
KAD1 220911Z 03018KT 10/05 A3001 RMK A01 T01040048  RH  068%=      5-min Rain = 0
KAD1 220912Z 03017KT 10/05 A3001 RMK A01 T01040048  RH  068%=      5-min Rain = 0
KAD1 220913Z 03017KT 10/05 A3001 RMK A01 T01040049  RH  068%=      5-min Rain = 0
KAD1 220914Z 03016KT 10/05 A3001 RMK A01 T01040049  RH  069%=      5-min Rain = 0
KAD1 220915Z 03017KT 10/05 A3001 RMK A01 T01020048  RH  069%=      5-min Rain = 0
KAD1 220916Z 03015KT 10/05 A3001 RMK A01 T01020048  RH  069%=      5-min Rain = 0
KAD1 220917Z 03016KT 10/05 A3001 RMK A01 T01020049  RH  069%=      5-min Rain = 0
KAD1 220918Z 03015KT 10/05 A3001 RMK A01 T01020049  RH  069%=      5-min Rain = 0
KAD1 220919Z 03017KT 10/05 A3001 RMK A01 T01020049  RH  070%=      5-min Rain = 0
KAD1 220920Z 03016KT 10/05 A3001 RMK A01 T01020049  RH  070%=      5-min Rain = 0
KAD1 220921Z 03018KT 10/05 A3001 RMK A01 T01010049  RH  070%=      5-min Rain = 0
KAD1 220922Z 03019KT 10/05 A3001 RMK A01 T01010050  RH  070%=      5-min Rain = 0
KAD1 220923Z 03020KT 10/05 A3001 RMK A01 T01020050  RH  070%=      5-min Rain = 0
KAD1 220924Z 03017KT 10/05 A3001 RMK A01 T01030050  RH  070%=      5-min Rain = 0
KAD1 220925Z 03020G25KT 10/05 A3001 RMK A01 T01030050  RH  070%=      5-min Rain = 0
KAD1 220926Z 02019G24KT 10/05 A3001 RMK A01 T01030050  RH  070%=      5-min Rain = 0
KAD1 220927Z 03016G21KT 10/05 A3002 RMK A01 T01030051  RH  070%=      5-min Rain = 0
KAD1 220928Z 03018G24KT 10/05 A3002 RMK A01 T01030051  RH  070%=      5-min Rain = 0
KAD1 220929Z 02020KT 10/05 A3002 RMK A01 T01030052  RH  070%=      5-min Rain = 0
KAD1 220930Z 03019KT 10/05 A3002 RMK A01 T01030051  RH  070%=      5-min Rain = 0
KAD1 220931Z 03015KT 10/05 A3002 RMK A01 T01030051  RH  070%=      5-min Rain = 0
KAD1 220932Z 03016KT 10/05 A3002 RMK A01 T01020051  RH  071%=      5-min Rain = 0
KAD1 220933Z 03019G24KT 10/05 A3002 RMK A01 T01010051  RH  071%=      5-min Rain = 0
KAD1 220934Z 03020G25KT 10/05 A3002 RMK A01 T01010051  RH  071%=      5-min Rain = 0
KAD1 220935Z 03018KT 10/05 A3002 RMK A01 T01020051  RH  071%=      5-min Rain = 0
KAD1 220936Z 03017KT 10/05 A3002 RMK A01 T01030052  RH  070%=      5-min Rain = 0
KAD1 220937Z 03015KT 10/05 A3002 RMK A01 T01020051  RH  070%=      5-min Rain = 0
KAD1 220938Z 03016KT 10/05 A3002 RMK A01 T01010051  RH  071%=      5-min Rain = 0
KAD1 220939Z 03016KT 10/05 A3002 RMK A01 T01010051  RH  071%=      5-min Rain = 0
KAD1 220940Z 03017KT 10/05 A3002 RMK A01 T01000052  RH  072%=      5-min Rain = 0
KAD1 220941Z 03016KT 10/05 A3002 RMK A01 T01000051  RH  072%=      5-min Rain = 0
KAD1 220942Z 03014KT 10/05 A3002 RMK A01 T01000051  RH  072%=      5-min Rain = 0
KAD1 220943Z 03018KT 10/05 A3002 RMK A01 T01000051  RH  072%=      5-min Rain = 0
KAD1 220944Z 03015KT 10/05 A3002 RMK A01 T01000052  RH  072%=      5-min Rain = 0
KAD1 220945Z 03017KT 10/05 A3002 RMK A01 T01000052  RH  072%=      5-min Rain = 0
KAD1 220946Z 03017KT 10/05 A3002 RMK A01 T01000052  RH  072%=      5-min Rain = 0
KAD1 220947Z 03019G24KT 10/05 A3002 RMK A01 T01000052  RH  072%=      5-min Rain = 0
KAD1 220948Z 03019KT 10/05 A3002 RMK A01 T01010053  RH  072%=      5-min Rain = 0
KAD1 220949Z 03017KT 10/05 A3002 RMK A01 T01010053  RH  072%=      5-min Rain = 0
KAD1 220950Z 03016KT 10/05 A3002 RMK A01 T01010053  RH  072%=      5-min Rain = 0
KAD1 220951Z 03016KT 10/05 A3002 RMK A01 T01010053  RH  072%=      5-min Rain = 0
KAD1 220952Z 03018KT 10/05 A3002 RMK A01 T01010053  RH  072%=      5-min Rain = 0
KAD1 220953Z 03016KT 10/05 A3002 RMK A01 T01000053  RH  072%=      5-min Rain = 0
KAD1 220954Z 03017KT 10/05 A3002 RMK A01 T01010053  RH  072%=      5-min Rain = 0
KAD1 220955Z 03017KT 10/05 A3002 RMK A01 T01000053  RH  073%=      5-min Rain = 0
KAD1 220956Z 03017KT 10/05 A3002 RMK A01 T01000053  RH  073%=      5-min Rain = 0
KAD1 220957Z 03016KT 10/05 A3002 RMK A01 T01000053  RH  073%=      5-min Rain = 0
KAD1 220958Z 03019KT 10/05 A3002 RMK A01 T00990053  RH  073%=      5-min Rain = 0
KAD1 220959Z 03016KT 10/05 A3002 RMK A01 T01000054  RH  073%=      5-min Rain = 0
KAD1 221000Z 03019KT 10/05 A3002 RMK A01 T01000053  RH  073%=      5-min Rain = 0
KAD1 221001Z 03017G22KT 10/05 A3002 RMK A01 T01010054  RH  073%=      5-min Rain = 0
KAD1 221002Z 03018KT 10/05 A3002 RMK A01 T01010054  RH  072%=      5-min Rain = 0
KAD1 221003Z 03016KT 10/05 A3002 RMK A01 T01000053  RH  073%=      5-min Rain = 0
KAD1 221004Z 02015KT 10/05 A3002 RMK A01 T01000053  RH  073%=      5-min Rain = 0
KAD1 221005Z 03018KT 10/05 A3002 RMK A01 T01000054  RH  073%=      5-min Rain = 0
KAD1 221006Z 03017KT 10/05 A3002 RMK A01 T00990054  RH  073%=      5-min Rain = 0
KAD1 221007Z 03017KT 10/05 A3002 RMK A01 T00990054  RH  074%=      5-min Rain = 0
KAD1 221008Z 03017KT 10/05 A3002 RMK A01 T00990054  RH  074%=      5-min Rain = 0
KAD1 221009Z 03019KT 10/05 A3002 RMK A01 T00990054  RH  074%=      5-min Rain = 0
KAD1 221010Z 02016KT 10/05 A3002 RMK A01 T00990054  RH  073%=      5-min Rain = 0
KAD1 221011Z 02016KT 10/05 A3002 RMK A01 T00990054  RH  073%=      5-min Rain = 0
KAD1 221012Z 03017KT 10/05 A3002 RMK A01 T00980054  RH  074%=      5-min Rain = 0
KAD1 221013Z 02016KT 10/05 A3002 RMK A01 T00980054  RH  074%=      5-min Rain = 0
KAD1 221014Z 02018KT 10/05 A3002 RMK A01 T00980054  RH  074%=      5-min Rain = 0
KAD1 221015Z 02015KT 10/05 A3002 RMK A01 T00980054  RH  074%=      5-min Rain = 0
KAD1 221016Z 02016KT 10/05 A3002 RMK A01 T00980054  RH  074%=      5-min Rain = 0
KAD1 221017Z 02016KT 10/05 A3002 RMK A01 T00970054  RH  074%=      5-min Rain = 0
KAD1 221018Z 02016KT 10/05 A3002 RMK A01 T00970054  RH  074%=      5-min Rain = 0
KAD1 221019Z 02017KT 10/06 A3003 RMK A01 T00980055  RH  075%=      5-min Rain = 0
KAD1 221020Z 02016KT 10/05 A3003 RMK A01 T00970054  RH  075%=      5-min Rain = 0
KAD1 221021Z 02014KT 10/06 A3003 RMK A01 T00970055  RH  075%=      5-min Rain = 0
KAD1 221022Z 02015KT 10/06 A3003 RMK A01 T00970055  RH  075%=      5-min Rain = 0
KAD1 221023Z 02015G20KT 10/06 A3003 RMK A01 T00960055  RH  075%=      5-min Rain = 0
KAD1 221024Z 02013KT 10/06 A3003 RMK A01 T00960055  RH  075%=      5-min Rain = 0
KAD1 221025Z 02016KT 10/06 A3003 RMK A01 T00960055  RH  076%=      5-min Rain = 0
KAD1 221026Z 02015KT 10/06 A3003 RMK A01 T00960055  RH  076%=      5-min Rain = 0
KAD1 221027Z 02016KT 10/06 A3003 RMK A01 T00960055  RH  076%=      5-min Rain = 0
KAD1 221028Z 02014KT 10/06 A3003 RMK A01 T00960056  RH  076%=      5-min Rain = 0
KAD1 221029Z 02015KT 10/06 A3003 RMK A01 T00960056  RH  076%=      5-min Rain = 0
KAD1 221030Z 02015KT 10/06 A3003 RMK A01 T00950056  RH  077%=      5-min Rain = 0
KAD1 221031Z 02015KT 10/06 A3003 RMK A01 T00950056  RH  077%=      5-min Rain = 0
KAD1 221032Z 02015KT 10/06 A3003 RMK A01 T00960057  RH  077%=      5-min Rain = 0
KAD1 221033Z 02014KT 10/06 A3003 RMK A01 T00950057  RH  077%=      5-min Rain = 0
KAD1 221034Z 02016KT 10/06 A3003 RMK A01 T00950057  RH  077%=      5-min Rain = 0
KAD1 221035Z 02016KT 10/06 A3003 RMK A01 T00950057  RH  077%=      5-min Rain = 0
KAD1 221036Z 02014KT 10/06 A3003 RMK A01 T00950057  RH  077%=      5-min Rain = 0
KAD1 221037Z 03016KT 10/06 A3003 RMK A01 T00950058  RH  078%=      5-min Rain = 0
KAD1 221038Z 02015KT 10/06 A3003 RMK A01 T00950058  RH  078%=      5-min Rain = 0
KAD1 221039Z 03015KT 10/06 A3003 RMK A01 T00950058  RH  078%=      5-min Rain = 0
KAD1 221040Z 02015KT 09/06 A3003 RMK A01 T00940058  RH  078%=      5-min Rain = 0
KAD1 221041Z 03013KT 09/06 A3003 RMK A01 T00930058  RH  078%=      5-min Rain = 0
KAD1 221042Z 03013KT 09/06 A3003 RMK A01 T00930058  RH  079%=      5-min Rain = 0
KAD1 221043Z 03013KT 09/06 A3003 RMK A01 T00920058  RH  079%=      5-min Rain = 0
KAD1 221044Z 03014KT 09/06 A3003 RMK A01 T00920058  RH  079%=      5-min Rain = 0
KAD1 221045Z 03014KT 09/06 A3003 RMK A01 T00920058  RH  079%=      5-min Rain = 0
KAD1 221046Z 03014G19KT 09/06 A3003 RMK A01 T00920058  RH  080%=      5-min Rain = 0
KAD1 221047Z 03014KT 09/06 A3003 RMK A01 T00910058  RH  080%=      5-min Rain = 0
KAD1 221048Z 02015G20KT 09/06 A3003 RMK A01 T00910059  RH  080%=      5-min Rain = 0
KAD1 221049Z 03016KT 09/06 A3003 RMK A01 T00920059  RH  080%=      5-min Rain = 0
KAD1 221050Z 03017KT 09/06 A3003 RMK A01 T00920060  RH  080%=      5-min Rain = 0
KAD1 221051Z 03015KT 09/06 A3004 RMK A01 T00930060  RH  080%=      5-min Rain = 0
KAD1 221052Z 03015KT 09/06 A3004 RMK A01 T00930060  RH  080%=      5-min Rain = 0
KAD1 221053Z 03016KT 09/06 A3004 RMK A01 T00930060  RH  080%=      5-min Rain = 0
KAD1 221054Z 03015KT 09/06 A3004 RMK A01 T00930060  RH  080%=      5-min Rain = 0
KAD1 221055Z 03015KT 09/06 A3004 RMK A01 T00930060  RH  080%=      5-min Rain = 0
KAD1 221056Z 03014KT 09/06 A3004 RMK A01 T00920060  RH  080%=      5-min Rain = 0
KAD1 221057Z 03015KT 09/06 A3004 RMK A01 T00910060  RH  081%=      5-min Rain = 0
KAD1 221058Z 04016KT 09/06 A3004 RMK A01 T00900060  RH  081%=      5-min Rain = 0
KAD1 221059Z 03014KT 09/06 A3004 RMK A01 T00900060  RH  082%=      5-min Rain = 0
KAD1 221100Z 03015KT 09/06 A3004 RMK A01 T00900060  RH  082%=      5-min Rain = 0
KAD1 221101Z 03013KT 09/06 A3004 RMK A01 T00900060  RH  082%=      5-min Rain = 0
KAD1 221102Z 04013KT 09/06 A3004 RMK A01 T00890060  RH  082%=      5-min Rain = 0
KAD1 221103Z 03014KT 09/06 A3003 RMK A01 T00880060  RH  083%=      5-min Rain = 0
KAD1 221104Z 04016KT 09/06 A3003 RMK A01 T00880061  RH  083%=      5-min Rain = 0
KAD1 221105Z 04014KT 09/06 A3003 RMK A01 T00890061  RH  083%=      5-min Rain = 0
KAD1 221106Z 04014KT 09/06 A3003 RMK A01 T00890061  RH  083%=      5-min Rain = 0
KAD1 221107Z 04016KT 09/06 A3003 RMK A01 T00880060  RH  083%=      5-min Rain = 0
KAD1 221108Z 04014KT 09/06 A3003 RMK A01 T00880061  RH  083%=      5-min Rain = 0
KAD1 221109Z 04017KT 09/06 A3003 RMK A01 T00880061  RH  083%=      5-min Rain = 0
KAD1 221110Z 04015KT 09/06 A3003 RMK A01 T00880062  RH  084%=      5-min Rain = 0
KAD1 221111Z 04017KT 09/06 A3003 RMK A01 T00880062  RH  083%=      5-min Rain = 0
KAD1 221112Z 04020KT 09/06 A3003 RMK A01 T00880062  RH  083%=      5-min Rain = 0
KAD1 221113Z 04018KT 09/06 A3003 RMK A01 T00890063  RH  084%=      5-min Rain = 0
KAD1 221114Z 04018KT 09/06 A3003 RMK A01 T00900063  RH  083%=      5-min Rain = 0
KAD1 221115Z 04017KT 09/06 A3003 RMK A01 T00890062  RH  083%=      5-min Rain = 0
KAD1 221116Z 04017KT 09/06 A3004 RMK A01 T00890063  RH  083%=      5-min Rain = 0
KAD1 221117Z 04018KT 09/06 A3004 RMK A01 T00890062  RH  084%=      5-min Rain = 0
KAD1 221118Z 04018KT 09/06 A3004 RMK A01 T00890063  RH  084%=      5-min Rain = 0
KAD1 221119Z 04016G21KT 09/06 A3004 RMK A01 T00900063  RH  084%=      5-min Rain = 0
KAD1 221120Z 04014KT 09/06 A3004 RMK A01 T00900063  RH  083%=      5-min Rain = 0
KAD1 221121Z 03014KT 09/06 A3004 RMK A01 T00880062  RH  084%=      5-min Rain = 0
KAD1 221122Z 03014KT 09/06 A3004 RMK A01 T00880063  RH  084%=      5-min Rain = 0
KAD1 221123Z 03015G21KT 09/06 A3004 RMK A01 T00880063  RH  084%=      5-min Rain = 0
KAD1 221124Z 03014KT 09/06 A3004 RMK A01 T00880063  RH  084%=      5-min Rain = 0
KAD1 221125Z 03015G20KT 09/06 A3004 RMK A01 T00880063  RH  084%=      5-min Rain = 0
KAD1 221126Z 03016KT 09/06 A3004 RMK A01 T00870063  RH  085%=      5-min Rain = 0
KAD1 221127Z 03015KT 09/06 A3004 RMK A01 T00870063  RH  085%=      5-min Rain = 0
KAD1 221128Z 03015KT 09/06 A3004 RMK A01 T00870063  RH  085%=      5-min Rain = 0
KAD1 221129Z 03015KT 09/06 A3004 RMK A01 T00870063  RH  085%=      5-min Rain = 0
KAD1 221130Z 04015KT 09/06 A3005 RMK A01 T00870063  RH  085%=      5-min Rain = 0
KAD1 221131Z 04015KT 09/06 A3005 RMK A01 T00870063  RH  085%=      5-min Rain = 0
KAD1 221132Z 04015KT 09/06 A3005 RMK A01 T00860063  RH  085%=      5-min Rain = 0
KAD1 221133Z 04016KT 09/06 A3005 RMK A01 T00870063  RH  085%=      5-min Rain = 0
KAD1 221134Z 04015KT 09/06 A3005 RMK A01 T00860063  RH  085%=      5-min Rain = 0
KAD1 221135Z 04015KT 09/06 A3005 RMK A01 T00860063  RH  086%=      5-min Rain = 0
KAD1 221136Z 04018KT 09/06 A3005 RMK A01 T00860064  RH  086%=      5-min Rain = 0
KAD1 221137Z 04017KT 09/06 A3005 RMK A01 T00860064  RH  086%=      5-min Rain = 0
KAD1 221138Z 04015KT 09/06 A3005 RMK A01 T00870064  RH  086%=      5-min Rain = 0
KAD1 221139Z 04015KT 09/06 A3005 RMK A01 T00860064  RH  086%=      5-min Rain = 0
KAD1 221140Z 04016KT 09/06 A3005 RMK A01 T00860064  RH  086%=      5-min Rain = 0
KAD1 221141Z 04017KT 09/06 A3005 RMK A01 T00860064  RH  086%=      5-min Rain = 0
KAD1 221142Z 04017KT 09/06 A3005 RMK A01 T00860064  RH  086%=      5-min Rain = 0
KAD1 221143Z 04016KT 09/06 A3005 RMK A01 T00860064  RH  086%=      5-min Rain = 0
KAD1 221144Z 04015KT 09/06 A3005 RMK A01 T00860064  RH  086%=      5-min Rain = 0
KAD1 221145Z 04016KT 09/06 A3005 RMK A01 T00850063  RH  087%=      5-min Rain = 0
KAD1 221146Z 04014KT 09/06 A3005 RMK A01 T00850064  RH  087%=      5-min Rain = 0
KAD1 221147Z 04014KT 08/06 A3005 RMK A01 T00840064  RH  087%=      5-min Rain = 0
KAD1 221148Z 04014KT 08/06 A3005 RMK A01 T00840063  RH  087%=      5-min Rain = 0
KAD1 221149Z 04015KT 08/06 A3005 RMK A01 T00830063  RH  087%=      5-min Rain = 0
KAD1 221150Z 04014KT 08/06 A3005 RMK A01 T00830064  RH  088%=      5-min Rain = 0
KAD1 221151Z 04015KT 08/06 A3005 RMK A01 T00830064  RH  088%=      5-min Rain = 0
KAD1 221152Z 04015KT 08/06 A3005 RMK A01 T00830064  RH  088%=      5-min Rain = 0
KAD1 221153Z 04013KT 08/06 A3005 RMK A01 T00830064  RH  088%=      5-min Rain = 0
KAD1 221154Z 04017KT 08/06 A3005 RMK A01 T00830064  RH  088%=      5-min Rain = 0
KAD1 221155Z 04016KT 08/07 A3005 RMK A01 T00830065  RH  088%=      5-min Rain = 0
KAD1 221156Z 04013KT 08/07 A3005 RMK A01 T00840065  RH  088%=      5-min Rain = 0
KAD1 221157Z 04013KT 08/06 A3005 RMK A01 T00830064  RH  088%=      5-min Rain = 0
KAD1 221158Z 04015KT 08/06 A3005 RMK A01 T00830064  RH  088%=      5-min Rain = 0
KAD1 221159Z 04017G22KT 08/06 A3005 RMK A01 T00820064  RH  088%=      5-min Rain = 0
KAD1 221200Z 04016KT 08/07 A3005 RMK A01 T00840066  RH  089%=      5-min Rain = 0
KAD1 221201Z 04016KT 08/07 A3006 RMK A01 T00840065  RH  088%=      5-min Rain = 0
KAD1 221202Z 04014KT 08/07 A3006 RMK A01 T00840065  RH  088%=      5-min Rain = 0
KAD1 221203Z 04017KT 08/06 A3006 RMK A01 T00830064  RH  088%=      5-min Rain = 0
KAD1 221204Z 04016KT 08/07 A3006 RMK A01 T00830065  RH  089%=      5-min Rain = 0
KAD1 221205Z 04016KT 08/07 A3006 RMK A01 T00840065  RH  088%=      5-min Rain = 0
KAD1 221206Z 04015KT 08/07 A3006 RMK A01 T00840066  RH  088%=      5-min Rain = 0
KAD1 221207Z 04017KT 08/07 A3007 RMK A01 T00840065  RH  088%=      5-min Rain = 0
KAD1 221208Z 04017KT 08/07 A3007 RMK A01 T00840066  RH  088%=      5-min Rain = 0
KAD1 221209Z 04016KT 08/07 A3007 RMK A01 T00840065  RH  088%=      5-min Rain = 0
KAD1 221210Z 03015KT 08/07 A3007 RMK A01 T00830065  RH  088%=      5-min Rain = 0
KAD1 221211Z 04014KT 08/07 A3007 RMK A01 T00830065  RH  089%=      5-min Rain = 0
KAD1 221212Z 04013KT 08/07 A3007 RMK A01 T00830066  RH  089%=      5-min Rain = 0
KAD1 221213Z 04014KT 08/07 A3008 RMK A01 T00830065  RH  089%=      5-min Rain = 0
KAD1 221214Z 04014KT 08/07 A3008 RMK A01 T00830065  RH  089%=      5-min Rain = 0
KAD1 221215Z 04014KT 08/07 A3008 RMK A01 T00830066  RH  089%=      5-min Rain = 0
KAD1 221216Z 04014KT 08/07 A3008 RMK A01 T00820065  RH  089%=      5-min Rain = 0
KAD1 221217Z 04015KT 08/07 A3008 RMK A01 T00820065  RH  089%=      5-min Rain = 0
KAD1 221218Z 04015KT 08/07 A3008 RMK A01 T00820066  RH  089%=      5-min Rain = 0
KAD1 221219Z 04014KT 08/07 A3008 RMK A01 T00820065  RH  089%=      5-min Rain = 0
KAD1 221220Z 03013KT 08/07 A3008 RMK A01 T00820066  RH  089%=      5-min Rain = 0
KAD1 221221Z 04014KT 08/07 A3008 RMK A01 T00820065  RH  089%=      5-min Rain = 0
KAD1 221222Z 04013KT 08/07 A3008 RMK A01 T00820066  RH  089%=      5-min Rain = 0
KAD1 221223Z 04013KT 08/07 A3008 RMK A01 T00820066  RH  090%=      5-min Rain = 0
KAD1 221224Z 04013KT 08/07 A3008 RMK A01 T00820066  RH  090%=      5-min Rain = 0
KAD1 221225Z 03011KT 08/07 A3008 RMK A01 T00820066  RH  090%=      5-min Rain = 0
KAD1 221226Z 03014KT 08/07 A3008 RMK A01 T00820066  RH  090%=      5-min Rain = 0
KAD1 221227Z 03014KT 08/07 A3009 RMK A01 T00820066  RH  090%=      5-min Rain = 0
KAD1 221228Z 04013KT 08/07 A3009 RMK A01 T00820066  RH  090%=      5-min Rain = 0
KAD1 221229Z 04013KT 08/07 A3009 RMK A01 T00820066  RH  089%=      5-min Rain = 0
KAD1 221230Z 03011KT 08/07 A3009 RMK A01 T00820066  RH  089%=      5-min Rain = 0
KAD1 221231Z 03012KT 08/07 A3009 RMK A01 T00820065  RH  090%=      5-min Rain = 0
KAD1 221232Z 03013KT 08/07 A3009 RMK A01 T00820066  RH  090%=      5-min Rain = 0
KAD1 221233Z 03012KT 08/07 A3009 RMK A01 T00820066  RH  090%=      5-min Rain = 0
KAD1 221234Z 03012KT 08/07 A3009 RMK A01 T00820066  RH  090%=      5-min Rain = 0
KAD1 221235Z 03013KT 08/07 A3009 RMK A01 T00820066  RH  090%=      5-min Rain = 0
KAD1 221236Z 04013KT 08/07 A301 RMK A01 T00820066  RH  090%=      5-min Rain = 0
KAD1 221237Z 03014KT 08/07 A301 RMK A01 T00830066  RH  089%=      5-min Rain = 0
KAD1 221238Z 03011KT 08/07 A301 RMK A01 T00840067  RH  089%=      5-min Rain = 0
KAD1 221239Z 03009KT 08/07 A301 RMK A01 T00840067  RH  089%=      5-min Rain = 0
KAD1 221240Z 03013KT 08/07 A301 RMK A01 T00830066  RH  089%=      5-min Rain = 0
KAD1 221241Z 02013KT 08/07 A301 RMK A01 T00840067  RH  089%=      5-min Rain = 0
KAD1 221242Z 02012KT 08/07 A301 RMK A01 T00840067  RH  089%=      5-min Rain = 0
KAD1 221243Z 03013KT 09/07 A301 RMK A01 T00850067  RH  089%=      5-min Rain = 0
KAD1 221244Z 03011KT 09/07 A301 RMK A01 T00850067  RH  089%=      5-min Rain = 0
KAD1 221245Z 03013KT 09/07 A301 RMK A01 T00850067  RH  089%=      5-min Rain = 0
KAD1 221246Z 02013KT 09/07 A301 RMK A01 T00850067  RH  089%=      5-min Rain = 0
KAD1 221247Z 02013KT 09/07 A301 RMK A01 T00860067  RH  088%=      5-min Rain = 0
KAD1 221248Z 02012KT 09/07 A301 RMK A01 T00860067  RH  088%=      5-min Rain = 0
KAD1 221249Z 03012KT 09/07 A3011 RMK A01 T00850067  RH  088%=      5-min Rain = 0
KAD1 221250Z 02013KT 09/07 A3011 RMK A01 T00860067  RH  088%=      5-min Rain = 0
KAD1 221251Z 03011KT 09/07 A3011 RMK A01 T00860067  RH  088%=      5-min Rain = 0
KAD1 221252Z 03011KT 09/07 A3011 RMK A01 T00860067  RH  088%=      5-min Rain = 0
KAD1 221253Z 02010KT 09/07 A3012 RMK A01 T00860067  RH  088%=      5-min Rain = 0
KAD1 221254Z 03011KT 09/07 A3012 RMK A01 T00860067  RH  088%=      5-min Rain = 0
KAD1 221255Z 02012KT 09/07 A3012 RMK A01 T00870068  RH  088%=      5-min Rain = 0
KAD1 221256Z 03012KT 09/07 A3012 RMK A01 T00870067  RH  088%=      5-min Rain = 0
KAD1 221257Z 02011KT 09/07 A3012 RMK A01 T00870068  RH  088%=      5-min Rain = 0
KAD1 221258Z 02011KT 09/07 A3012 RMK A01 T00870068  RH  087%=      5-min Rain = 0
KAD1 221259Z 03011KT 09/07 A3012 RMK A01 T00880067  RH  087%=      5-min Rain = 0
KAD1 221300Z 03011KT 09/07 A3012 RMK A01 T00870067  RH  087%=      5-min Rain = 0
KAD1 221301Z 03010KT 09/07 A3012 RMK A01 T00880067  RH  087%=      5-min Rain = 0
KAD1 221302Z 03013KT 09/07 A3012 RMK A01 T00880067  RH  087%=      5-min Rain = 0
KAD1 221303Z 02010KT 09/07 A3012 RMK A01 T00880067  RH  087%=      5-min Rain = 0
KAD1 221304Z 03011KT 09/07 A3012 RMK A01 T00880067  RH  087%=      5-min Rain = 0
KAD1 221305Z 03010KT 09/07 A3012 RMK A01 T00880067  RH  087%=      5-min Rain = 0
KAD1 221306Z 02010KT 09/07 A3012 RMK A01 T00880067  RH  087%=      5-min Rain = 0
KAD1 221307Z 02011KT 09/07 A3012 RMK A01 T00890067  RH  087%=      5-min Rain = 0
KAD1 221308Z 02012KT 09/07 A3012 RMK A01 T00890067  RH  086%=      5-min Rain = 0
KAD1 221309Z 02012KT 09/07 A3012 RMK A01 T00890067  RH  086%=      5-min Rain = 0
KAD1 221310Z 02014KT 09/07 A3012 RMK A01 T00890067  RH  086%=      5-min Rain = 0
KAD1 221311Z 02014KT 09/07 A3012 RMK A01 T00890066  RH  086%=      5-min Rain = 0
KAD1 221312Z 03014KT 09/07 A3012 RMK A01 T00890067  RH  086%=      5-min Rain = 0
KAD1 221313Z 03012KT 09/07 A3012 RMK A01 T00890066  RH  086%=      5-min Rain = 0
KAD1 221314Z 02013KT 09/07 A3012 RMK A01 T00890066  RH  086%=      5-min Rain = 0
KAD1 221315Z 02013KT 09/07 A3012 RMK A01 T00880066  RH  086%=      5-min Rain = 0
KAD1 221316Z 02013KT 09/07 A3012 RMK A01 T00890066  RH  086%=      5-min Rain = 0
KAD1 221317Z 02011KT 09/07 A3013 RMK A01 T00890066  RH  086%=      5-min Rain = 0
KAD1 221318Z 02011KT 09/07 A3013 RMK A01 T00900067  RH  086%=      5-min Rain = 0
KAD1 221319Z 02010KT 09/07 A3013 RMK A01 T00900068  RH  086%=      5-min Rain = 0
KAD1 221320Z 02012KT 09/07 A3012 RMK A01 T00910068  RH  086%=      5-min Rain = 0
KAD1 221321Z 02012KT 09/07 A3013 RMK A01 T00910067  RH  085%=      5-min Rain = 0
KAD1 221322Z 03012KT 09/07 A3013 RMK A01 T00910067  RH  085%=      5-min Rain = 0
KAD1 221323Z 03013KT 09/07 A3013 RMK A01 T00910067  RH  085%=      5-min Rain = 0
KAD1 221324Z 03012KT 09/07 A3013 RMK A01 T00910067  RH  085%=      5-min Rain = 0
KAD1 221325Z 02013KT 09/07 A3013 RMK A01 T00920067  RH  085%=      5-min Rain = 0
KAD1 221326Z 03015KT 09/07 A3013 RMK A01 T00920066  RH  084%=      5-min Rain = 0
KAD1 221327Z 03014KT 09/07 A3013 RMK A01 T00920065  RH  084%=      5-min Rain = 0
KAD1 221328Z 02014KT 09/07 A3013 RMK A01 T00910066  RH  084%=      5-min Rain = 0
KAD1 221329Z 02013KT 09/07 A3013 RMK A01 T00920066  RH  084%=      5-min Rain = 0
KAD1 221330Z 03013KT 09/07 A3012 RMK A01 T00920066  RH  084%=      5-min Rain = 0
KAD1 221331Z 02015KT 09/07 A3012 RMK A01 T00930067  RH  084%=      5-min Rain = 0
KAD1 221332Z 02017KT 09/07 A3012 RMK A01 T00930066  RH  083%=      5-min Rain = 0
KAD1 221333Z 02014KT 09/07 A3012 RMK A01 T00940066  RH  083%=      5-min Rain = 0
KAD1 221334Z 02015KT 09/07 A3012 RMK A01 T00940066  RH  083%=      5-min Rain = 0
KAD1 221335Z 02016KT 09/07 A3012 RMK A01 T00940065  RH  082%=      5-min Rain = 0
KAD1 221336Z 03014KT 10/07 A3012 RMK A01 T00960066  RH  082%=      5-min Rain = 0
KAD1 221337Z 02015KT 10/07 A3012 RMK A01 T00960066  RH  082%=      5-min Rain = 0
KAD1 221338Z 02016KT 10/07 A3012 RMK A01 T00970066  RH  081%=      5-min Rain = 0
KAD1 221339Z 02016KT 10/07 A3012 RMK A01 T00970066  RH  081%=      5-min Rain = 0
KAD1 221340Z 02015KT 10/07 A3012 RMK A01 T00980066  RH  081%=      5-min Rain = 0
KAD1 221341Z 02015KT 10/07 A3012 RMK A01 T00990067  RH  080%=      5-min Rain = 0
KAD1 221342Z 02015KT 10/07 A3012 RMK A01 T00990066  RH  080%=      5-min Rain = 0
KAD1 221343Z 02015KT 10/07 A3012 RMK A01 T00990066  RH  080%=      5-min Rain = 0
KAD1 221344Z 03014KT 10/07 A3012 RMK A01 T01000067  RH  080%=      5-min Rain = 0
KAD1 221345Z 04018KT 10/07 A3012 RMK A01 T01010067  RH  079%=      5-min Rain = 0
KAD1 221346Z 03016KT 10/07 A3013 RMK A01 T01010066  RH  079%=      5-min Rain = 0
KAD1 221347Z 03017KT 10/07 A3013 RMK A01 T01020066  RH  079%=      5-min Rain = 0
KAD1 221348Z 02019KT 10/07 A3013 RMK A01 T01020065  RH  078%=      5-min Rain = 0
KAD1 221349Z 03017KT 10/07 A3013 RMK A01 T01030066  RH  078%=      5-min Rain = 0
KAD1 221350Z 03017KT 10/07 A3013 RMK A01 T01030067  RH  078%=      5-min Rain = 0
KAD1 221351Z 02016KT 10/07 A3013 RMK A01 T01040066  RH  077%=      5-min Rain = 0
KAD1 221352Z 02015KT 10/07 A3013 RMK A01 T01030065  RH  078%=      5-min Rain = 0
KAD1 221353Z 03015KT 10/07 A3013 RMK A01 T01030067  RH  078%=      5-min Rain = 0
KAD1 221354Z 03019KT 11/07 A3013 RMK A01 T01050066  RH  077%=      5-min Rain = 0
KAD1 221355Z 02021KT 11/07 A3012 RMK A01 T01060066  RH  076%=      5-min Rain = 0
KAD1 221356Z 04018KT 11/07 A3012 RMK A01 T01050065  RH  077%=      5-min Rain = 0
KAD1 221357Z 04017KT 10/07 A3012 RMK A01 T01040065  RH  077%=      5-min Rain = 0
KAD1 221358Z 03015KT 10/07 A3013 RMK A01 T01040066  RH  077%=      5-min Rain = 0
KAD1 221359Z 03016KT 10/07 A3013 RMK A01 T01040066  RH  077%=      5-min Rain = 0
KAD1 221400Z 04021G26KT 10/07 A3013 RMK A01 T01040065  RH  077%=      5-min Rain = 0
KAD1 221401Z 03021KT 10/06 A3012 RMK A01 T01020063  RH  077%=      5-min Rain = 0
KAD1 221402Z 03017KT 10/06 A3012 RMK A01 T01020064  RH  077%=      5-min Rain = 0
KAD1 221403Z 03017KT 10/07 A3012 RMK A01 T01030066  RH  078%=      5-min Rain = 0
KAD1 221404Z 03018KT 10/07 A3012 RMK A01 T01040065  RH  077%=      5-min Rain = 0
KAD1 221405Z 04016KT 10/07 A3013 RMK A01 T01040065  RH  077%=      5-min Rain = 0
KAD1 221406Z 04016KT 10/07 A3013 RMK A01 T01040066  RH  077%=      5-min Rain = 0
KAD1 221407Z 03016G22KT 11/07 A3013 RMK A01 T01050067  RH  077%=      5-min Rain = 0
KAD1 221408Z 03017KT 11/06 A3013 RMK A01 T01060064  RH  076%=      5-min Rain = 0
KAD1 221409Z 03016KT 10/06 A3013 RMK A01 T01040064  RH  076%=      5-min Rain = 0
KAD1 221410Z 02017KT 10/06 A3013 RMK A01 T01040064  RH  076%=      5-min Rain = 0
KAD1 221411Z 03018KT 10/06 A3013 RMK A01 T01030064  RH  077%=      5-min Rain = 0
KAD1 221412Z 03018KT 10/06 A3013 RMK A01 T01030064  RH  077%=      5-min Rain = 0
KAD1 221413Z 02017KT 10/06 A3013 RMK A01 T01030064  RH  077%=      5-min Rain = 0
KAD1 221414Z 02016KT 10/06 A3013 RMK A01 T01030064  RH  077%=      5-min Rain = 0
KAD1 221415Z 03016KT 10/06 A3013 RMK A01 T01030064  RH  077%=      5-min Rain = 0
KAD1 221416Z 04016KT 10/07 A3013 RMK A01 T01040065  RH  077%=      5-min Rain = 0
KAD1 221417Z 04016KT 11/07 A3013 RMK A01 T01050066  RH  076%=      5-min Rain = 0
KAD1 221418Z 03017KT 11/07 A3013 RMK A01 T01060065  RH  076%=      5-min Rain = 0
KAD1 221419Z 04017KT 11/07 A3013 RMK A01 T01060065  RH  076%=      5-min Rain = 0
KAD1 221420Z 03014KT 11/07 A3013 RMK A01 T01060065  RH  076%=      5-min Rain = 0
KAD1 221421Z 04014G19KT 11/07 A3013 RMK A01 T01080067  RH  076%=      5-min Rain = 0
KAD1 221422Z 04019KT 11/07 A3013 RMK A01 T01090065  RH  074%=      5-min Rain = 0
KAD1 221423Z 04018KT 11/06 A3013 RMK A01 T01070063  RH  074%=      5-min Rain = 0
KAD1 221424Z 04017KT 11/06 A3013 RMK A01 T01060063  RH  075%=      5-min Rain = 0
KAD1 221425Z 04018KT 11/06 A3013 RMK A01 T01050063  RH  075%=      5-min Rain = 0
KAD1 221426Z 05018KT 11/06 A3013 RMK A01 T01050063  RH  076%=      5-min Rain = 0
KAD1 221427Z 04017KT 11/06 A3013 RMK A01 T01050063  RH  075%=      5-min Rain = 0
KAD1 221428Z 04016KT 11/06 A3013 RMK A01 T01050063  RH  075%=      5-min Rain = 0
KAD1 221429Z 04016KT 11/07 A3013 RMK A01 T01060065  RH  076%=      5-min Rain = 0
KAD1 221430Z 03017KT 11/07 A3013 RMK A01 T01070065  RH  075%=      5-min Rain = 0
KAD1 221431Z 03017KT 11/06 A3013 RMK A01 T01070063  RH  074%=      5-min Rain = 0
KAD1 221432Z 03019KT 11/06 A3013 RMK A01 T01060062  RH  075%=      5-min Rain = 0
KAD1 221433Z 03017KT 11/06 A3013 RMK A01 T01060063  RH  075%=      5-min Rain = 0
KAD1 221434Z 03015KT 11/06 A3013 RMK A01 T01070064  RH  075%=      5-min Rain = 0
KAD1 221435Z 04018KT 11/07 A3013 RMK A01 T01100066  RH  074%=      5-min Rain = 0
KAD1 221436Z 03018KT 11/06 A3013 RMK A01 T01100064  RH  073%=      5-min Rain = 0
KAD1 221437Z 03016KT 11/06 A3013 RMK A01 T01100064  RH  073%=      5-min Rain = 0
KAD1 221438Z 03015KT 11/06 A3013 RMK A01 T01100064  RH  073%=      5-min Rain = 0
KAD1 221439Z 04015KT 11/06 A3013 RMK A01 T01100064  RH  073%=      5-min Rain = 0
KAD1 221440Z 04016KT 11/07 A3013 RMK A01 T01100065  RH  074%=      5-min Rain = 0
KAD1 221441Z 04018KT 11/07 A3013 RMK A01 T01110066  RH  074%=      5-min Rain = 0
KAD1 221442Z 04018KT 11/07 A3013 RMK A01 T01120065  RH  072%=      5-min Rain = 0
KAD1 221443Z 04018KT 11/06 A3013 RMK A01 T01110063  RH  073%=      5-min Rain = 0
KAD1 221444Z 04017KT 11/06 A3013 RMK A01 T01090063  RH  073%=      5-min Rain = 0
KAD1 221445Z 04019KT 11/06 A3013 RMK A01 T01090064  RH  073%=      5-min Rain = 0
KAD1 221446Z 04018KT 11/06 A3013 RMK A01 T01080062  RH  073%=      5-min Rain = 0
KAD1 221447Z 04017KT 11/06 A3013 RMK A01 T01080063  RH  074%=      5-min Rain = 0
KAD1 221448Z 03018KT 11/06 A3013 RMK A01 T01090064  RH  074%=      5-min Rain = 0
KAD1 221449Z 03020KT 11/06 A3013 RMK A01 T01100063  RH  073%=      5-min Rain = 0
KAD1 221450Z 02019KT 11/06 A3014 RMK A01 T01100063  RH  073%=      5-min Rain = 0
KAD1 221451Z 03020KT 11/06 A3014 RMK A01 T01100063  RH  073%=      5-min Rain = 0
KAD1 221452Z 02020KT 11/06 A3014 RMK A01 T01100062  RH  073%=      5-min Rain = 0
KAD1 221453Z 04017KT 11/06 A3014 RMK A01 T01080062  RH  073%=      5-min Rain = 0
KAD1 221454Z 03017KT 11/07 A3014 RMK A01 T01110065  RH  074%=      5-min Rain = 0
KAD1 221455Z 03017KT 11/06 A3014 RMK A01 T01120064  RH  072%=      5-min Rain = 0
KAD1 221456Z 04019KT 11/06 A3014 RMK A01 T01130064  RH  072%=      5-min Rain = 0
KAD1 221457Z 05017KT 12/07 A3014 RMK A01 T01150065  RH  072%=      5-min Rain = 0
KAD1 221458Z 04018KT 12/07 A3014 RMK A01 T01170065  RH  071%=      5-min Rain = 0
KAD1 221459Z 04019KT 12/06 A3014 RMK A01 T01170064  RH  070%=      5-min Rain = 0
KAD1 221500Z 04018KT 12/06 A3014 RMK A01 T01150063  RH  070%=      5-min Rain = 0
KAD1 221501Z 03018KT 11/06 A3014 RMK A01 T01140063  RH  071%=      5-min Rain = 0
KAD1 221502Z 02018KT 11/06 A3014 RMK A01 T01140063  RH  071%=      5-min Rain = 0
KAD1 221503Z 03018G23KT 11/06 A3014 RMK A01 T01130063  RH  071%=      5-min Rain = 0
KAD1 221504Z 03021KT 11/06 A3014 RMK A01 T01130064  RH  071%=      5-min Rain = 0
KAD1 221505Z 04019KT 11/06 A3014 RMK A01 T01130063  RH  071%=      5-min Rain = 0
KAD1 221506Z 03020KT 11/06 A3014 RMK A01 T01110061  RH  071%=      5-min Rain = 0
KAD1 221507Z 04019KT 11/06 A3014 RMK A01 T01100062  RH  072%=      5-min Rain = 0
KAD1 221508Z 03017KT 11/06 A3014 RMK A01 T01090062  RH  073%=      5-min Rain = 0
KAD1 221509Z 03017KT 11/06 A3014 RMK A01 T01100062  RH  072%=      5-min Rain = 0
KAD1 221510Z 04018KT 11/06 A3014 RMK A01 T01090063  RH  073%=      5-min Rain = 0
KAD1 221511Z 04018KT 11/07 A3014 RMK A01 T01120065  RH  073%=      5-min Rain = 0
KAD1 221512Z 04017KT 11/06 A3014 RMK A01 T01130062  RH  071%=      5-min Rain = 0
KAD1 221513Z 03016KT 11/06 A3014 RMK A01 T01120063  RH  071%=      5-min Rain = 0
KAD1 221514Z 02015KT 11/06 A3014 RMK A01 T01130063  RH  071%=      5-min Rain = 0
KAD1 221515Z 02016KT 11/07 A3014 RMK A01 T01140065  RH  071%=      5-min Rain = 0
KAD1 221516Z 02015KT 12/06 A3014 RMK A01 T01150063  RH  071%=      5-min Rain = 0
KAD1 221517Z 04018KT 11/06 A3014 RMK A01 T01140063  RH  071%=      5-min Rain = 0
KAD1 221518Z 03017KT 11/06 A3014 RMK A01 T01130062  RH  071%=      5-min Rain = 0
KAD1 221519Z 03018KT 11/06 A3014 RMK A01 T01130063  RH  071%=      5-min Rain = 0
KAD1 221520Z 02017KT 11/06 A3014 RMK A01 T01130063  RH  071%=      5-min Rain = 0
KAD1 221521Z 03016KT 11/06 A3014 RMK A01 T01130062  RH  071%=      5-min Rain = 0
KAD1 221522Z 03015KT 11/06 A3014 RMK A01 T01120062  RH  071%=      5-min Rain = 0
KAD1 221523Z 02015KT 11/06 A3015 RMK A01 T01120063  RH  072%=      5-min Rain = 0
KAD1 221524Z 02017KT 11/06 A3015 RMK A01 T01130064  RH  072%=      5-min Rain = 0
KAD1 221525Z 03016KT 11/06 A3015 RMK A01 T01130062  RH  071%=      5-min Rain = 0
KAD1 221526Z 04016G21KT 11/06 A3015 RMK A01 T01120063  RH  072%=      5-min Rain = 0
KAD1 221527Z 04019KT 11/06 A3015 RMK A01 T01140063  RH  071%=      5-min Rain = 0
KAD1 221528Z 04019KT 11/06 A3015 RMK A01 T01130061  RH  071%=      5-min Rain = 0
KAD1 221529Z 04019KT 11/06 A3015 RMK A01 T01120062  RH  071%=      5-min Rain = 0
KAD1 221530Z 04016KT 11/06 A3015 RMK A01 T01120062  RH  071%=      5-min Rain = 0
KAD1 221531Z 04018KT 12/06 A3015 RMK A01 T01150064  RH  071%=      5-min Rain = 0
KAD1 221532Z 04018KT 12/06 A3015 RMK A01 T01150062  RH  070%=      5-min Rain = 0
KAD1 221533Z 04016KT 11/06 A3015 RMK A01 T01140062  RH  071%=      5-min Rain = 0
KAD1 221534Z 05017KT 12/06 A3015 RMK A01 T01150062  RH  070%=      5-min Rain = 0
KAD1 221535Z 05018KT 11/06 A3015 RMK A01 T01140062  RH  070%=      5-min Rain = 0
KAD1 221536Z 04019KT 11/06 A3015 RMK A01 T01130061  RH  070%=      5-min Rain = 0
KAD1 221537Z 04015KT 11/06 A3015 RMK A01 T01130062  RH  071%=      5-min Rain = 0
KAD1 221538Z 04017KT 11/06 A3015 RMK A01 T01140063  RH  071%=      5-min Rain = 0
KAD1 221539Z 03016G21KT 11/06 A3014 RMK A01 T01140063  RH  070%=      5-min Rain = 0
KAD1 221540Z 03018KT 12/06 A3014 RMK A01 T01150063  RH  070%=      5-min Rain = 0
KAD1 221541Z 03018KT 12/06 A3014 RMK A01 T01150062  RH  070%=      5-min Rain = 0
KAD1 221542Z 03019KT 11/06 A3014 RMK A01 T01140062  RH  070%=      5-min Rain = 0
KAD1 221543Z 03018KT 11/06 A3014 RMK A01 T01130062  RH  071%=      5-min Rain = 0
KAD1 221544Z 04017KT 11/06 A3014 RMK A01 T01140064  RH  071%=      5-min Rain = 0
KAD1 221545Z 04015KT 12/07 A3014 RMK A01 T01180066  RH  070%=      5-min Rain = 0
KAD1 221546Z 03014KT 12/07 A3014 RMK A01 T01200066  RH  070%=      5-min Rain = 0
KAD1 221547Z 02016KT 12/07 A3014 RMK A01 T01210065  RH  068%=      5-min Rain = 0
KAD1 221548Z 02018KT 12/06 A3014 RMK A01 T01200063  RH  068%=      5-min Rain = 0
KAD1 221549Z 03019KT 12/06 A3014 RMK A01 T01180064  RH  069%=      5-min Rain = 0
KAD1 221550Z 02017G22KT 12/06 A3014 RMK A01 T01180063  RH  069%=      5-min Rain = 0
KAD1 221551Z 03019KT 12/06 A3014 RMK A01 T01190064  RH  069%=      5-min Rain = 0
KAD1 221552Z 03017KT 12/06 A3014 RMK A01 T01190063  RH  069%=      5-min Rain = 0
KAD1 221553Z 03018KT 12/06 A3014 RMK A01 T01200063  RH  068%=      5-min Rain = 0
KAD1 221554Z 02018KT 12/06 A3014 RMK A01 T01190063  RH  069%=      5-min Rain = 0
KAD1 221555Z 03018KT 12/06 A3014 RMK A01 T01180062  RH  069%=      5-min Rain = 0
KAD1 221556Z 03018KT 12/06 A3014 RMK A01 T01170062  RH  069%=      5-min Rain = 0
KAD1 221557Z 03018KT 12/06 A3014 RMK A01 T01170062  RH  069%=      5-min Rain = 0
KAD1 221558Z 04018KT 12/06 A3014 RMK A01 T01170062  RH  069%=      5-min Rain = 0
KAD1 221559Z 03019KT 12/06 A3014 RMK A01 T01170062  RH  069%=      5-min Rain = 0
KAD1 221600Z 03020KT 12/06 A3014 RMK A01 T01180063  RH  069%=      5-min Rain = 0
KAD1 221601Z 02018KT 12/06 A3014 RMK A01 T01180062  RH  068%=      5-min Rain = 0
KAD1 221602Z 04017KT 12/06 A3014 RMK A01 T01190064  RH  069%=      5-min Rain = 0
KAD1 221603Z 04017KT 12/07 A3014 RMK A01 T01210065  RH  068%=      5-min Rain = 0
KAD1 221604Z 03016KT 12/07 A3014 RMK A01 T01220065  RH  068%=      5-min Rain = 0
KAD1 221605Z 04015KT 12/07 A3014 RMK A01 T01230065  RH  068%=      5-min Rain = 0
KAD1 221606Z 04015KT 12/06 A3014 RMK A01 T01230064  RH  067%=      5-min Rain = 0
KAD1 221607Z 04015KT 12/06 A3014 RMK A01 T01230064  RH  067%=      5-min Rain = 0
KAD1 221608Z 04015KT 12/06 A3014 RMK A01 T01220064  RH  067%=      5-min Rain = 0
KAD1 221609Z 04016KT 12/06 A3014 RMK A01 T01220064  RH  068%=      5-min Rain = 0
KAD1 221610Z 05015KT 12/06 A3014 RMK A01 T01220064  RH  068%=      5-min Rain = 0
KAD1 221611Z 04016KT 12/06 A3014 RMK A01 T01210064  RH  068%=      5-min Rain = 0
KAD1 221612Z 03016KT 12/07 A3014 RMK A01 T01220065  RH  068%=      5-min Rain = 0
KAD1 221613Z 04016KT 12/06 A3014 RMK A01 T01230064  RH  067%=      5-min Rain = 0
KAD1 221614Z 04016KT 12/06 A3014 RMK A01 T01230064  RH  067%=      5-min Rain = 0
KAD1 221615Z 04018KT 12/06 A3014 RMK A01 T01220063  RH  067%=      5-min Rain = 0
KAD1 221616Z 04016KT 12/06 A3014 RMK A01 T01220064  RH  068%=      5-min Rain = 0
KAD1 221617Z 04017KT 12/06 A3014 RMK A01 T01230064  RH  067%=      5-min Rain = 0
KAD1 221618Z 04016KT 12/06 A3014 RMK A01 T01230063  RH  067%=      5-min Rain = 0
KAD1 221619Z 04014KT 12/07 A3014 RMK A01 T01240065  RH  067%=      5-min Rain = 0
KAD1 221620Z 04016KT 13/07 A3014 RMK A01 T01260065  RH  066%=      5-min Rain = 0
KAD1 221621Z 04014KT 13/06 A3014 RMK A01 T01250063  RH  066%=      5-min Rain = 0
KAD1 221622Z 04016KT 12/06 A3015 RMK A01 T01240064  RH  067%=      5-min Rain = 0
KAD1 221623Z 04014KT 13/06 A3015 RMK A01 T01250064  RH  066%=      5-min Rain = 0
KAD1 221624Z 04014KT 13/06 A3015 RMK A01 T01250064  RH  066%=      5-min Rain = 0
KAD1 221625Z 04016KT 12/06 A3015 RMK A01 T01240064  RH  066%=      5-min Rain = 0
KAD1 221626Z 03016KT 12/06 A3015 RMK A01 T01240063  RH  066%=      5-min Rain = 0
KAD1 221627Z 02016KT 13/06 A3015 RMK A01 T01250064  RH  066%=      5-min Rain = 0
KAD1 221628Z 02016KT 13/06 A3015 RMK A01 T01250064  RH  066%=      5-min Rain = 0
KAD1 221629Z 02012KT 12/06 A3015 RMK A01 T01240063  RH  066%=      5-min Rain = 0
KAD1 221630Z 02014KT 12/07 A3015 RMK A01 T01240065  RH  067%=      5-min Rain = 0
KAD1 221631Z 03016KT 12/06 A3015 RMK A01 T01240064  RH  067%=      5-min Rain = 0
KAD1 221632Z 03014KT 13/06 A3015 RMK A01 T01250064  RH  066%=      5-min Rain = 0
KAD1 221633Z 02013KT 13/06 A3015 RMK A01 T01260064  RH  066%=      5-min Rain = 0
KAD1 221634Z 03014KT 13/07 A3015 RMK A01 T01260065  RH  066%=      5-min Rain = 0
KAD1 221635Z 04016KT 13/07 A3015 RMK A01 T01280065  RH  065%=      5-min Rain = 0
KAD1 221636Z 04015KT 13/07 A3015 RMK A01 T01300065  RH  065%=      5-min Rain = 0
KAD1 221637Z 03017KT 13/06 A3015 RMK A01 T01290063  RH  064%=      5-min Rain = 0
KAD1 221638Z 03013KT 13/06 A3015 RMK A01 T01270061  RH  064%=      5-min Rain = 0
KAD1 221639Z 03015KT 13/06 A3015 RMK A01 T01260062  RH  065%=      5-min Rain = 0
KAD1 221640Z 03015KT 13/06 A3015 RMK A01 T01260063  RH  065%=      5-min Rain = 0
KAD1 221641Z 05014KT 13/06 A3015 RMK A01 T01270063  RH  065%=      5-min Rain = 0
KAD1 221642Z 05013KT 13/06 A3015 RMK A01 T01270064  RH  065%=      5-min Rain = 0
KAD1 221643Z 05016KT 13/06 A3015 RMK A01 T01270064  RH  065%=      5-min Rain = 0
KAD1 221644Z 03015KT 13/06 A3015 RMK A01 T01280064  RH  065%=      5-min Rain = 0
KAD1 221645Z 03014KT 13/06 A3015 RMK A01 T01280064  RH  065%=      5-min Rain = 0
KAD1 221646Z 02015KT 13/07 A3015 RMK A01 T01290065  RH  065%=      5-min Rain = 0
KAD1 221647Z 02015KT 13/06 A3015 RMK A01 T01290064  RH  065%=      5-min Rain = 0
KAD1 221648Z 03015G21KT 13/06 A3015 RMK A01 T01290064  RH  065%=      5-min Rain = 0
KAD1 221649Z 04014KT 13/07 A3015 RMK A01 T01290065  RH  065%=      5-min Rain = 0
KAD1 221650Z 03014KT 13/07 A3015 RMK A01 T01300065  RH  065%=      5-min Rain = 0
KAD1 221651Z 03014KT 13/06 A3015 RMK A01 T01310064  RH  064%=      5-min Rain = 0
KAD1 221652Z 04016KT 13/07 A3016 RMK A01 T01300065  RH  064%=      5-min Rain = 0
KAD1 221653Z 04013KT 13/06 A3016 RMK A01 T01300064  RH  064%=      5-min Rain = 0
KAD1 221654Z 04011KT 13/06 A3016 RMK A01 T01300063  RH  064%=      5-min Rain = 0
KAD1 221655Z 03011KT 13/06 A3016 RMK A01 T01290063  RH  064%=      5-min Rain = 0
KAD1 221656Z 04012KT 13/06 A3016 RMK A01 T01280064  RH  065%=      5-min Rain = 0
KAD1 221657Z 05014G19KT 13/06 A3016 RMK A01 T01290064  RH  064%=      5-min Rain = 0
KAD1 221658Z 04016KT 13/06 A3016 RMK A01 T01310064  RH  064%=      5-min Rain = 0
KAD1 221659Z 05015KT 13/06 A3016 RMK A01 T01310064  RH  064%=      5-min Rain = 0
KAD1 221700Z 04016KT 13/06 A3016 RMK A01 T01310062  RH  063%=      5-min Rain = 0
KAD1 221701Z 04015KT 13/06 A3016 RMK A01 T01310062  RH  063%=      5-min Rain = 0
KAD1 221702Z 05016KT 13/06 A3016 RMK A01 T01300062  RH  064%=      5-min Rain = 0
KAD1 221703Z 04014KT 13/06 A3016 RMK A01 T01290063  RH  064%=      5-min Rain = 0
KAD1 221704Z 04012KT 13/06 A3016 RMK A01 T01290063  RH  064%=      5-min Rain = 0
KAD1 221705Z 03015KT 13/06 A3016 RMK A01 T01290063  RH  064%=      5-min Rain = 0
KAD1 221706Z 04017G23KT 13/06 A3016 RMK A01 T01300063  RH  064%=      5-min Rain = 0
KAD1 221707Z 04016KT 13/06 A3016 RMK A01 T01310062  RH  063%=      5-min Rain = 0
KAD1 221708Z 04014KT 13/06 A3016 RMK A01 T01310062  RH  063%=      5-min Rain = 0
KAD1 221709Z 04012KT 13/06 A3016 RMK A01 T01310063  RH  063%=      5-min Rain = 0
KAD1 221710Z 04013KT 13/06 A3016 RMK A01 T01300063  RH  064%=      5-min Rain = 0
KAD1 221711Z 03016KT 13/06 A3016 RMK A01 T01320064  RH  063%=      5-min Rain = 0
KAD1 221712Z 03017KT 13/06 A3016 RMK A01 T01320062  RH  062%=      5-min Rain = 0
KAD1 221713Z 03017KT 13/06 A3016 RMK A01 T01320062  RH  062%=      5-min Rain = 0
KAD1 221714Z 03014KT 13/06 A3016 RMK A01 T01330063  RH  062%=      5-min Rain = 0
KAD1 221715Z 03014KT 13/06 A3016 RMK A01 T01340063  RH  062%=      5-min Rain = 0
KAD1 221716Z 02013KT 13/06 A3016 RMK A01 T01340063  RH  062%=      5-min Rain = 0
KAD1 221717Z 02013KT 13/06 A3016 RMK A01 T01340063  RH  062%=      5-min Rain = 0
KAD1 221718Z 02013KT 14/06 A3016 RMK A01 T01350064  RH  062%=      5-min Rain = 0
KAD1 221719Z 02015KT 14/06 A3016 RMK A01 T01360064  RH  062%=      5-min Rain = 0
KAD1 221720Z 03013KT 14/07 A3016 RMK A01 T01380066  RH  062%=      5-min Rain = 0
KAD1 221721Z 03012KT 14/07 A3016 RMK A01 T01410067  RH  061%=      5-min Rain = 0
KAD1 221722Z 03010KT 14/07 A3016 RMK A01 T01410066  RH  061%=      5-min Rain = 0
KAD1 221723Z 04012KT 14/07 A3016 RMK A01 T01420067  RH  061%=      5-min Rain = 0
KAD1 221724Z 03012KT 14/07 A3016 RMK A01 T01430067  RH  060%=      5-min Rain = 0
KAD1 221725Z 03015KT 14/07 A3016 RMK A01 T01430066  RH  060%=      5-min Rain = 0
KAD1 221726Z 02014KT 14/06 A3016 RMK A01 T01410063  RH  060%=      5-min Rain = 0
KAD1 221727Z 03012KT 14/06 A3016 RMK A01 T01390064  RH  061%=      5-min Rain = 0
KAD1 221728Z 02012KT 14/07 A3016 RMK A01 T01400065  RH  061%=      5-min Rain = 0
KAD1 221729Z 02012KT 14/06 A3016 RMK A01 T01400063  RH  060%=      5-min Rain = 0
KAD1 221730Z 02015KT 14/06 A3017 RMK A01 T01390063  RH  060%=      5-min Rain = 0
KAD1 221731Z 01014KT 14/06 A3017 RMK A01 T01380062  RH  060%=      5-min Rain = 0
KAD1 221732Z 04012KT 14/06 A3017 RMK A01 T01390063  RH  060%=      5-min Rain = 0
KAD1 221733Z 04009KT 14/07 A3017 RMK A01 T01400066  RH  061%=      5-min Rain = 0
KAD1 221734Z 03009KT 14/07 A3018 RMK A01 T01430067  RH  060%=      5-min Rain = 0
KAD1 221735Z 03014KT 14/06 A3018 RMK A01 T01430064  RH  059%=      5-min Rain = 0
KAD1 221736Z 02014KT 14/06 A3018 RMK A01 T01400062  RH  059%=      5-min Rain = 0
KAD1 221737Z 02013KT 14/06 A3018 RMK A01 T01380061  RH  060%=      5-min Rain = 0
KAD1 221738Z 04013KT 14/06 A3018 RMK A01 T01370063  RH  061%=      5-min Rain = 0
KAD1 221739Z 04014KT 14/06 A3018 RMK A01 T01370062  RH  060%=      5-min Rain = 0
KAD1 221740Z 04010KT 14/06 A3017 RMK A01 T01370063  RH  061%=      5-min Rain = 0
KAD1 221741Z 04010KT 14/06 A3017 RMK A01 T01380064  RH  061%=      5-min Rain = 0
KAD1 221742Z 03013KT 14/07 A3017 RMK A01 T01390065  RH  061%=      5-min Rain = 0
KAD1 221743Z 03014KT 14/06 A3017 RMK A01 T01400064  RH  060%=      5-min Rain = 0
KAD1 221744Z 04014KT 14/06 A3017 RMK A01 T01400064  RH  060%=      5-min Rain = 0
KAD1 221745Z 04014KT 14/06 A3017 RMK A01 T01390063  RH  060%=      5-min Rain = 0
KAD1 221746Z 04013KT 14/06 A3017 RMK A01 T01380063  RH  060%=      5-min Rain = 0
KAD1 221747Z 05015KT 14/06 A3017 RMK A01 T01380064  RH  061%=      5-min Rain = 0
KAD1 221748Z 05013KT 14/06 A3017 RMK A01 T01380063  RH  061%=      5-min Rain = 0
KAD1 221749Z 03013KT 14/06 A3017 RMK A01 T01380064  RH  061%=      5-min Rain = 0
KAD1 221750Z 02013KT 14/06 A3017 RMK A01 T01390064  RH  061%=      5-min Rain = 0
KAD1 221751Z 02012KT 14/06 A3017 RMK A01 T01380064  RH  061%=      5-min Rain = 0
KAD1 221752Z 02014KT 14/07 A3017 RMK A01 T01390065  RH  061%=      5-min Rain = 0
KAD1 221753Z 03012KT 14/06 A3017 RMK A01 T01390064  RH  060%=      5-min Rain = 0
KAD1 221754Z 03009KT 14/06 A3017 RMK A01 T01380063  RH  061%=      5-min Rain = 0
KAD1 221755Z 03012KT 14/06 A3017 RMK A01 T01370063  RH  061%=      5-min Rain = 0
KAD1 221756Z 03013KT 14/06 A3017 RMK A01 T01370063  RH  061%=      5-min Rain = 0
KAD1 221757Z 04014KT 14/06 A3017 RMK A01 T01380064  RH  061%=      5-min Rain = 0
KAD1 221758Z 03013KT 14/06 A3016 RMK A01 T01380063  RH  061%=      5-min Rain = 0
KAD1 221759Z 03013KT 14/06 A3016 RMK A01 T01390063  RH  060%=      5-min Rain = 0
KAD1 221800Z 04012KT 14/06 A3016 RMK A01 T01390064  RH  061%=      5-min Rain = 0
KAD1 221801Z 03013KT 14/07 A3016 RMK A01 T01410066  RH  061%=      5-min Rain = 0
KAD1 221802Z 02013KT 14/06 A3016 RMK A01 T01410064  RH  060%=      5-min Rain = 0
KAD1 221803Z 02017KT 14/07 A3016 RMK A01 T01410065  RH  060%=      5-min Rain = 0
KAD1 221804Z 03015KT 14/07 A3016 RMK A01 T01440066  RH  060%=      5-min Rain = 0
KAD1 221805Z 04015KT 15/07 A3016 RMK A01 T01460066  RH  059%=      5-min Rain = 0
KAD1 221806Z 04011KT 14/06 A3016 RMK A01 T01440063  RH  058%=      5-min Rain = 0
KAD1 221807Z 04014KT 15/07 A3016 RMK A01 T01450067  RH  059%=      5-min Rain = 0
KAD1 221808Z 03016KT 15/07 A3016 RMK A01 T01460065  RH  058%=      5-min Rain = 0
KAD1 221809Z 03017KT 15/06 A3016 RMK A01 T01460063  RH  058%=      5-min Rain = 0
KAD1 221810Z 03017KT 15/06 A3016 RMK A01 T01450062  RH  057%=      5-min Rain = 0
KAD1 221811Z 04016KT 15/06 A3016 RMK A01 T01450063  RH  058%=      5-min Rain = 0
KAD1 221812Z 03016KT 15/06 A3016 RMK A01 T01450063  RH  058%=      5-min Rain = 0
KAD1 221813Z 04018KT 15/06 A3015 RMK A01 T01460061  RH  057%=      5-min Rain = 0
KAD1 221814Z 04016KT 15/06 A3015 RMK A01 T01460061  RH  057%=      5-min Rain = 0
KAD1 221815Z 05015G20KT 15/06 A3015 RMK A01 T01470064  RH  057%=      5-min Rain = 0
KAD1 221816Z 05015KT 15/07 A3015 RMK A01 T01510066  RH  057%=      5-min Rain = 0
KAD1 221817Z 04015KT 15/07 A3015 RMK A01 T01520065  RH  056%=      5-min Rain = 0
KAD1 221818Z 04017KT 15/06 A3015 RMK A01 T01520063  RH  055%=      5-min Rain = 0
KAD1 221819Z 04018KT 15/06 A3015 RMK A01 T01500064  RH  056%=      5-min Rain = 0
KAD1 221820Z 04016KT 15/06 A3015 RMK A01 T01500064  RH  056%=      5-min Rain = 0
KAD1 221821Z 03017KT 15/06 A3014 RMK A01 T01500064  RH  056%=      5-min Rain = 0
KAD1 221822Z 04017KT 15/06 A3014 RMK A01 T01490064  RH  056%=      5-min Rain = 0
KAD1 221823Z 04017KT 15/06 A3014 RMK A01 T01490064  RH  057%=      5-min Rain = 0
KAD1 221824Z 04020KT 15/06 A3014 RMK A01 T01500064  RH  056%=      5-min Rain = 0
KAD1 221825Z 04020KT 15/06 A3013 RMK A01 T01500063  RH  056%=      5-min Rain = 0
KAD1 221826Z 03019KT 15/07 A3013 RMK A01 T01510065  RH  056%=      5-min Rain = 0
KAD1 221827Z 04020KT 15/07 A3013 RMK A01 T01510065  RH  056%=      5-min Rain = 0
KAD1 221828Z 04021KT 15/06 A3013 RMK A01 T01520063  RH  055%=      5-min Rain = 0
KAD1 221829Z 03018KT 15/06 A3013 RMK A01 T01510063  RH  056%=      5-min Rain = 0
KAD1 221830Z 03015KT 15/06 A3013 RMK A01 T01500064  RH  056%=      5-min Rain = 0
KAD1 221831Z 04017KT 15/07 A3013 RMK A01 T01520067  RH  057%=      5-min Rain = 0
KAD1 221832Z 03020KT 15/07 A3013 RMK A01 T01540065  RH  055%=      5-min Rain = 0
KAD1 221833Z 03020KT 15/07 A3013 RMK A01 T01540065  RH  056%=      5-min Rain = 0
KAD1 221834Z 03019KT 15/06 A3013 RMK A01 T01540064  RH  055%=      5-min Rain = 0
KAD1 221835Z 04019KT 15/06 A3013 RMK A01 T01520063  RH  055%=      5-min Rain = 0
KAD1 221836Z 04016KT 15/06 A3013 RMK A01 T01500063  RH  056%=      5-min Rain = 0
KAD1 221837Z 04018G23KT 15/07 A3013 RMK A01 T01500065  RH  057%=      5-min Rain = 0
KAD1 221838Z 03021KT 15/07 A3013 RMK A01 T01520065  RH  056%=      5-min Rain = 0
KAD1 221839Z 04020KT 15/06 A3013 RMK A01 T01510062  RH  055%=      5-min Rain = 0
KAD1 221840Z 05016KT 15/06 A3013 RMK A01 T01500062  RH  056%=      5-min Rain = 0
KAD1 221841Z 04017KT 15/06 A3014 RMK A01 T01510064  RH  056%=      5-min Rain = 0
KAD1 221842Z 05017G22KT 15/06 A3014 RMK A01 T01520064  RH  055%=      5-min Rain = 0
KAD1 221843Z 04019KT 15/06 A3014 RMK A01 T01520063  RH  055%=      5-min Rain = 0
KAD1 221844Z 05019KT 15/06 A3014 RMK A01 T01520063  RH  055%=      5-min Rain = 0
KAD1 221845Z 05018KT 15/06 A3014 RMK A01 T01530063  RH  055%=      5-min Rain = 0
KAD1 221846Z 05016KT 15/06 A3014 RMK A01 T01520063  RH  055%=      5-min Rain = 0
KAD1 221847Z 06018KT 15/06 A3014 RMK A01 T01530064  RH  055%=      5-min Rain = 0
KAD1 221848Z 04016KT 15/07 A3013 RMK A01 T01540065  RH  055%=      5-min Rain = 0
KAD1 221849Z 05018KT 16/07 A3013 RMK A01 T01570067  RH  055%=      5-min Rain = 0
KAD1 221850Z 04018KT 16/06 A3013 RMK A01 T01570064  RH  054%=      5-min Rain = 0
KAD1 221851Z 05018KT 16/07 A3013 RMK A01 T01570067  RH  055%=      5-min Rain = 0
KAD1 221852Z 05020KT 16/06 A3013 RMK A01 T01580064  RH  054%=      5-min Rain = 0
KAD1 221853Z 05020KT 16/06 A3013 RMK A01 T01550062  RH  054%=      5-min Rain = 0
KAD1 221854Z 05018KT 15/06 A3013 RMK A01 T01540063  RH  054%=      5-min Rain = 0
KAD1 221855Z 05022KT 15/06 A3013 RMK A01 T01540064  RH  055%=      5-min Rain = 0
KAD1 221856Z 05019KT 16/06 A3014 RMK A01 T01550062  RH  054%=      5-min Rain = 0
KAD1 221857Z 05017KT 15/06 A3014 RMK A01 T01540063  RH  054%=      5-min Rain = 0
KAD1 221858Z 04018KT 16/06 A3014 RMK A01 T01560064  RH  054%=      5-min Rain = 0
KAD1 221859Z 04017G23KT 16/06 A3014 RMK A01 T01550064  RH  054%=      5-min Rain = 0
KAD1 221900Z 04018KT 16/07 A3014 RMK A01 T01570066  RH  055%=      5-min Rain = 0
KAD1 221901Z 03018KT 16/07 A3014 RMK A01 T01580065  RH  054%=      5-min Rain = 0
KAD1 221902Z 02017KT 16/07 A3014 RMK A01 T01570065  RH  054%=      5-min Rain = 0
KAD1 221903Z 04020KT 16/07 A3014 RMK A01 T01580065  RH  054%=      5-min Rain = 0
KAD1 221904Z 05019KT 16/06 A3014 RMK A01 T01590063  RH  053%=      5-min Rain = 0
KAD1 221905Z 05018KT 16/06 A3014 RMK A01 T01590064  RH  053%=      5-min Rain = 0
KAD1 221906Z 05019KT 16/06 A3013 RMK A01 T01590064  RH  053%=      5-min Rain = 0
KAD1 221907Z 06017KT 16/06 A3013 RMK A01 T01590064  RH  053%=      5-min Rain = 0
KAD1 221908Z 04019KT 16/07 A3013 RMK A01 T01610067  RH  054%=      5-min Rain = 0
KAD1 221909Z 04019KT 16/07 A3013 RMK A01 T01620065  RH  053%=      5-min Rain = 0
KAD1 221910Z 04015KT 16/06 A3013 RMK A01 T01590064  RH  053%=      5-min Rain = 0
KAD1 221911Z 04021KT 16/07 A3013 RMK A01 T01590066  RH  054%=      5-min Rain = 0
KAD1 221912Z 05021KT 16/06 A3013 RMK A01 T01600062  RH  052%=      5-min Rain = 0
KAD1 221913Z 05020KT 16/06 A3013 RMK A01 T01570061  RH  053%=      5-min Rain = 0
KAD1 221914Z 04022KT 16/06 A3012 RMK A01 T01560060  RH  053%=      5-min Rain = 0
KAD1 221915Z 05020KT 16/06 A3012 RMK A01 T01550060  RH  053%=      5-min Rain = 0
KAD1 221916Z 04019KT 15/06 A3012 RMK A01 T01540061  RH  054%=      5-min Rain = 0
KAD1 221917Z 04020KT 15/06 A3012 RMK A01 T01540061  RH  054%=      5-min Rain = 0
KAD1 221918Z 04018KT 15/06 A3013 RMK A01 T01540062  RH  054%=      5-min Rain = 0
KAD1 221919Z 04016KT 16/06 A3013 RMK A01 T01560064  RH  054%=      5-min Rain = 0
KAD1 221920Z 04016KT 16/06 A3013 RMK A01 T01570063  RH  054%=      5-min Rain = 0
KAD1 221921Z 04018KT 16/06 A3013 RMK A01 T01570063  RH  054%=      5-min Rain = 0
KAD1 221922Z 03022KT 16/06 A3013 RMK A01 T01560062  RH  053%=      5-min Rain = 0
KAD1 221923Z 04018KT 15/06 A3014 RMK A01 T01540062  RH  054%=      5-min Rain = 0
KAD1 221924Z 05015KT 16/06 A3014 RMK A01 T01550063  RH  054%=      5-min Rain = 0
KAD1 221925Z 05017KT 16/06 A3015 RMK A01 T01550062  RH  054%=      5-min Rain = 0
KAD1 221926Z 04015KT 15/06 A3015 RMK A01 T01540062  RH  054%=      5-min Rain = 0
KAD1 221927Z 05014KT 15/06 A3015 RMK A01 T01540063  RH  055%=      5-min Rain = 0
KAD1 221928Z 04017KT 15/06 A3015 RMK A01 T01540063  RH  054%=      5-min Rain = 0
KAD1 221929Z 03018KT 16/06 A3015 RMK A01 T01550061  RH  054%=      5-min Rain = 0
KAD1 221930Z 03016KT 15/06 A3014 RMK A01 T01540061  RH  054%=      5-min Rain = 0
KAD1 221931Z 03017KT 15/06 A3014 RMK A01 T01530060  RH  054%=      5-min Rain = 0
KAD1 221932Z 02016KT 15/06 A3014 RMK A01 T01530061  RH  054%=      5-min Rain = 0
KAD1 221933Z 03015KT 15/06 A3014 RMK A01 T01530063  RH  055%=      5-min Rain = 0
KAD1 221934Z 04020KT 16/06 A3014 RMK A01 T01560064  RH  054%=      5-min Rain = 0
KAD1 221935Z 05018KT 16/06 A3014 RMK A01 T01570061  RH  053%=      5-min Rain = 0
KAD1 221936Z 04021KT 16/06 A3014 RMK A01 T01560062  RH  053%=      5-min Rain = 0
KAD1 221937Z 03017KT 16/06 A3014 RMK A01 T01560061  RH  053%=      5-min Rain = 0
KAD1 221938Z 04017KT 16/06 A3014 RMK A01 T01550062  RH  054%=      5-min Rain = 0
KAD1 221939Z 04021KT 16/06 A3013 RMK A01 T01560063  RH  054%=      5-min Rain = 0
KAD1 221940Z 04018KT 16/06 A3013 RMK A01 T01580063  RH  053%=      5-min Rain = 0
KAD1 221941Z 03018KT 16/07 A3013 RMK A01 T01590065  RH  054%=      5-min Rain = 0
KAD1 221942Z 03018KT 16/06 A3013 RMK A01 T01600064  RH  053%=      5-min Rain = 0
KAD1 221943Z 03019G25KT 16/07 A3013 RMK A01 T01620067  RH  053%=      5-min Rain = 0
KAD1 221944Z 03020G25KT 16/06 A3012 RMK A01 T01620062  RH  051%=      5-min Rain = 0
KAD1 221945Z 04018KT 16/06 A3013 RMK A01 T01590061  RH  052%=      5-min Rain = 0
KAD1 221946Z 05018G23KT 16/07 A3013 RMK A01 T01600065  RH  053%=      5-min Rain = 0
KAD1 221947Z 05019KT 16/06 A3013 RMK A01 T01620064  RH  052%=      5-min Rain = 0
KAD1 221948Z 05019KT 16/06 A3013 RMK A01 T01610062  RH  052%=      5-min Rain = 0
KAD1 221949Z 06022KT 16/06 A3012 RMK A01 T01610062  RH  052%=      5-min Rain = 0
KAD1 221950Z 05024KT 16/06 A3012 RMK A01 T01610061  RH  051%=      5-min Rain = 0
KAD1 221951Z 05024KT 16/06 A3012 RMK A01 T01620061  RH  051%=      5-min Rain = 0
KAD1 221952Z 04024KT 16/06 A3012 RMK A01 T01630062  RH  051%=      5-min Rain = 0
KAD1 221953Z 05024KT 16/06 A3011 RMK A01 T01640062  RH  051%=      5-min Rain = 0
KAD1 221954Z 05023KT 16/06 A3011 RMK A01 T01640062  RH  051%=      5-min Rain = 0
KAD1 221955Z 04027KT 17/06 A301 RMK A01 T01650063  RH  051%=      5-min Rain = 0
KAD1 221956Z 04024G29KT 16/06 A301 RMK A01 T01640062  RH  051%=      5-min Rain = 0
KAD1 221957Z 04026KT 16/06 A301 RMK A01 T01640062  RH  051%=      5-min Rain = 0
KAD1 221958Z 05024G29KT 16/06 A301 RMK A01 T01640062  RH  051%=      5-min Rain = 0
KAD1 221959Z 04024KT 16/06 A301 RMK A01 T01640063  RH  051%=      5-min Rain = 0
KAD1 222000Z 05024KT 16/06 A301 RMK A01 T01640063  RH  051%=      5-min Rain = 0
KAD1 222001Z 04023G28KT 16/06 A301 RMK A01 T01640061  RH  051%=      5-min Rain = 0
KAD1 222002Z 05024KT 16/06 A301 RMK A01 T01620060  RH  051%=      5-min Rain = 0
KAD1 222003Z 05021KT 16/06 A3011 RMK A01 T01610061  RH  051%=      5-min Rain = 0
KAD1 222004Z 05022G27KT 16/06 A3011 RMK A01 T01630063  RH  052%=      5-min Rain = 0
KAD1 222005Z 04021KT 16/06 A301 RMK A01 T01620061  RH  051%=      5-min Rain = 0
KAD1 222006Z 04020G26KT 16/06 A301 RMK A01 T01610061  RH  052%=      5-min Rain = 0
KAD1 222007Z 04020KT 16/06 A3011 RMK A01 T01600062  RH  052%=      5-min Rain = 0
KAD1 222008Z 04019KT 16/06 A3011 RMK A01 T01620063  RH  052%=      5-min Rain = 0
KAD1 222009Z 05022KT 16/06 A3011 RMK A01 T01620062  RH  051%=      5-min Rain = 0
KAD1 222010Z 05022KT 16/06 A3011 RMK A01 T01600062  RH  052%=      5-min Rain = 0
KAD1 222011Z 05019KT 16/06 A3011 RMK A01 T01600062  RH  052%=      5-min Rain = 0
KAD1 222012Z 05023KT 16/06 A3011 RMK A01 T01610063  RH  052%=      5-min Rain = 0
KAD1 222013Z 05018KT 16/06 A3011 RMK A01 T01600062  RH  052%=      5-min Rain = 0
KAD1 222014Z 05022KT 16/06 A3011 RMK A01 T01610062  RH  052%=      5-min Rain = 0
KAD1 222015Z 06022KT 16/06 A3011 RMK A01 T01600059  RH  051%=      5-min Rain = 0
KAD1 222016Z 06022KT 16/06 A3011 RMK A01 T01580059  RH  052%=      5-min Rain = 0
KAD1 222017Z 06024KT 16/06 A3011 RMK A01 T01570060  RH  052%=      5-min Rain = 0
KAD1 222018Z 06025KT 16/06 A301 RMK A01 T01570060  RH  053%=      5-min Rain = 0
KAD1 222019Z 05024KT 16/06 A301 RMK A01 T01570061  RH  053%=      5-min Rain = 0
KAD1 222020Z 05024KT 16/06 A301 RMK A01 T01580060  RH  052%=      5-min Rain = 0
KAD1 222021Z 04025G30KT 16/06 A301 RMK A01 T01570059  RH  052%=      5-min Rain = 0
KAD1 222022Z 05024KT 16/06 A301 RMK A01 T01560059  RH  052%=      5-min Rain = 0
KAD1 222023Z 04023KT 16/06 A301 RMK A01 T01560060  RH  053%=      5-min Rain = 0
KAD1 222024Z 05020KT 16/06 A301 RMK A01 T01560060  RH  053%=      5-min Rain = 0
KAD1 222025Z 04020G25KT 16/06 A301 RMK A01 T01560061  RH  053%=      5-min Rain = 0
KAD1 222026Z 04019KT 16/06 A301 RMK A01 T01580062  RH  053%=      5-min Rain = 0
KAD1 222027Z 03021G27KT 16/06 A301 RMK A01 T01580062  RH  053%=      5-min Rain = 0
KAD1 222028Z 04023KT 16/06 A301 RMK A01 T01580060  RH  052%=      5-min Rain = 0
KAD1 222029Z 04022KT 16/06 A301 RMK A01 T01570058  RH  052%=      5-min Rain = 0
KAD1 222030Z 04022KT 16/06 A3011 RMK A01 T01560058  RH  052%=      5-min Rain = 0
KAD1 222031Z 05018KT 16/06 A3011 RMK A01 T01550058  RH  052%=      5-min Rain = 0
KAD1 222032Z 05019KT 16/06 A3011 RMK A01 T01550059  RH  053%=      5-min Rain = 0
KAD1 222033Z 04017G23KT 16/06 A3011 RMK A01 T01560060  RH  053%=      5-min Rain = 0
KAD1 222034Z 05021KT 16/06 A3011 RMK A01 T01560061  RH  053%=      5-min Rain = 0
KAD1 222035Z 04019KT 16/06 A3011 RMK A01 T01560059  RH  053%=      5-min Rain = 0
KAD1 222036Z 05018KT 16/06 A3012 RMK A01 T01550059  RH  053%=      5-min Rain = 0
KAD1 222037Z 05020KT 16/06 A3012 RMK A01 T01550059  RH  053%=      5-min Rain = 0
KAD1 222038Z 05021KT 16/06 A3012 RMK A01 T01550059  RH  053%=      5-min Rain = 0
KAD1 222039Z 05022KT 16/06 A3012 RMK A01 T01550059  RH  053%=      5-min Rain = 0
KAD1 222040Z 06020KT 16/06 A3012 RMK A01 T01550058  RH  052%=      5-min Rain = 0
KAD1 222041Z 06020KT 15/06 A3012 RMK A01 T01540059  RH  053%=      5-min Rain = 0
KAD1 222042Z 06019G24KT 15/06 A3012 RMK A01 T01540060  RH  053%=      5-min Rain = 0
KAD1 222043Z 05017KT 16/06 A3012 RMK A01 T01550061  RH  053%=      5-min Rain = 0
KAD1 222044Z 05019KT 16/06 A3012 RMK A01 T01560062  RH  053%=      5-min Rain = 0
KAD1 222045Z 04021KT 16/06 A3012 RMK A01 T01560060  RH  053%=      5-min Rain = 0
KAD1 222046Z 04020KT 16/06 A3012 RMK A01 T01560060  RH  053%=      5-min Rain = 0
KAD1 222047Z 05021KT 16/06 A3012 RMK A01 T01560061  RH  053%=      5-min Rain = 0
KAD1 222048Z 04019KT 16/06 A3011 RMK A01 T01560062  RH  053%=      5-min Rain = 0
KAD1 222049Z 04022KT 16/06 A3011 RMK A01 T01570061  RH  053%=      5-min Rain = 0
KAD1 222050Z 04025KT 16/06 A3011 RMK A01 T01570060  RH  052%=      5-min Rain = 0
KAD1 222051Z 04021KT 16/06 A3011 RMK A01 T01560059  RH  052%=      5-min Rain = 0
KAD1 222052Z 04021KT 16/06 A3011 RMK A01 T01560060  RH  053%=      5-min Rain = 0
KAD1 222053Z 04023KT 16/06 A3011 RMK A01 T01560058  RH  052%=      5-min Rain = 0
KAD1 222054Z 04023KT 16/06 A3011 RMK A01 T01550057  RH  052%=      5-min Rain = 0
KAD1 222055Z 04022KT 16/06 A3011 RMK A01 T01550057  RH  052%=      5-min Rain = 0
KAD1 222056Z 04022KT 15/06 A3011 RMK A01 T01540058  RH  053%=      5-min Rain = 0
KAD1 222057Z 04018KT 15/06 A3011 RMK A01 T01540059  RH  053%=      5-min Rain = 0
KAD1 222058Z 04019KT 15/06 A3012 RMK A01 T01540060  RH  053%=      5-min Rain = 0
KAD1 222059Z 03019G24KT 15/06 A3012 RMK A01 T01540061  RH  054%=      5-min Rain = 0
KAD1 222100Z 03018KT 15/06 A3012 RMK A01 T01540062  RH  054%=      5-min Rain = 0
KAD1 222101Z 04017KT 15/06 A3013 RMK A01 T01540063  RH  054%=      5-min Rain = 0
KAD1 222102Z 05017KT 15/06 A3013 RMK A01 T01540063  RH  054%=      5-min Rain = 0
KAD1 222103Z 04020KT 16/06 A3013 RMK A01 T01550063  RH  054%=      5-min Rain = 0
KAD1 222104Z 05017KT 16/06 A3013 RMK A01 T01550063  RH  054%=      5-min Rain = 0
KAD1 222105Z 05018KT 16/06 A3013 RMK A01 T01550063  RH  054%=      5-min Rain = 0
KAD1 222106Z 06015KT 16/06 A3013 RMK A01 T01550063  RH  054%=      5-min Rain = 0
KAD1 222107Z 06013KT 16/06 A3013 RMK A01 T01560063  RH  054%=      5-min Rain = 0
KAD1 222108Z 06015KT 16/06 A3013 RMK A01 T01560064  RH  054%=      5-min Rain = 0
KAD1 222109Z 05019KT 16/06 A3013 RMK A01 T01570063  RH  054%=      5-min Rain = 0
KAD1 222110Z 06021KT 16/06 A3013 RMK A01 T01570063  RH  053%=      5-min Rain = 0
KAD1 222111Z 06020KT 16/06 A3013 RMK A01 T01560062  RH  054%=      5-min Rain = 0
KAD1 222112Z 06019KT 16/06 A3012 RMK A01 T01560064  RH  054%=      5-min Rain = 0
KAD1 222113Z 05021KT 16/06 A3012 RMK A01 T01560063  RH  054%=      5-min Rain = 0
KAD1 222114Z 06021KT 16/06 A3012 RMK A01 T01560063  RH  054%=      5-min Rain = 0
KAD1 222115Z 05021KT 16/06 A3012 RMK A01 T01560063  RH  054%=      5-min Rain = 0
KAD1 222116Z 06021KT 16/06 A3012 RMK A01 T01560063  RH  054%=      5-min Rain = 0
KAD1 222117Z 06021KT 16/06 A3012 RMK A01 T01560064  RH  054%=      5-min Rain = 0
KAD1 222118Z 06019KT 16/06 A3013 RMK A01 T01560064  RH  054%=      5-min Rain = 0
KAD1 222119Z 06018KT 16/07 A3013 RMK A01 T01550066  RH  055%=      5-min Rain = 0
KAD1 222120Z 06017KT 16/07 A3013 RMK A01 T01560067  RH  055%=      5-min Rain = 0
KAD1 222121Z 06018KT 16/07 A3013 RMK A01 T01560065  RH  055%=      5-min Rain = 0
KAD1 222122Z 06016KT 16/07 A3013 RMK A01 T01560066  RH  055%=      5-min Rain = 0
KAD1 222123Z 06019KT 16/07 A3013 RMK A01 T01570067  RH  055%=      5-min Rain = 0
KAD1 222124Z 06018G23KT 16/07 A3013 RMK A01 T01570065  RH  054%=      5-min Rain = 0
KAD1 222125Z 06017G22KT 16/07 A3013 RMK A01 T01570065  RH  055%=      5-min Rain = 0
KAD1 222126Z 06021KT 16/07 A3013 RMK A01 T01560065  RH  054%=      5-min Rain = 0
KAD1 222127Z 06019KT 16/07 A3013 RMK A01 T01570065  RH  054%=      5-min Rain = 0
KAD1 222128Z 06019KT 16/06 A3013 RMK A01 T01570064  RH  054%=      5-min Rain = 0
KAD1 222129Z 06018KT 16/07 A3013 RMK A01 T01560065  RH  054%=      5-min Rain = 0
KAD1 222130Z 05018KT 16/07 A3013 RMK A01 T01570066  RH  055%=      5-min Rain = 0
KAD1 222131Z 05019KT 16/07 A3013 RMK A01 T01570065  RH  054%=      5-min Rain = 0
KAD1 222132Z 05017G22KT 16/07 A3013 RMK A01 T01570065  RH  055%=      5-min Rain = 0
KAD1 222133Z 05022KT 16/07 A3013 RMK A01 T01570066  RH  055%=      5-min Rain = 0
KAD1 222134Z 06021KT 16/07 A3013 RMK A01 T01560065  RH  054%=      5-min Rain = 0
KAD1 222135Z 06020KT 16/07 A3013 RMK A01 T01560066  RH  055%=      5-min Rain = 0
KAD1 222136Z 06021KT 16/07 A3013 RMK A01 T01550065  RH  055%=      5-min Rain = 0
KAD1 222137Z 06019KT 16/07 A3013 RMK A01 T01550065  RH  055%=      5-min Rain = 0
KAD1 222138Z 05020KT 16/07 A3013 RMK A01 T01550066  RH  055%=      5-min Rain = 0
KAD1 222139Z 05022KT 16/07 A3013 RMK A01 T01560065  RH  055%=      5-min Rain = 0
KAD1 222140Z 05021KT 16/07 A3012 RMK A01 T01560066  RH  055%=      5-min Rain = 0
KAD1 222141Z 05017G22KT 16/07 A3013 RMK A01 T01550066  RH  055%=      5-min Rain = 0
KAD1 222142Z 06018KT 16/07 A3013 RMK A01 T01560068  RH  056%=      5-min Rain = 0
KAD1 222143Z 06020G25KT 16/07 A3013 RMK A01 T01570068  RH  055%=      5-min Rain = 0
KAD1 222144Z 06020KT 16/07 A3013 RMK A01 T01560065  RH  055%=      5-min Rain = 0
KAD1 222145Z 06021KT 16/07 A3013 RMK A01 T01550065  RH  055%=      5-min Rain = 0
KAD1 222146Z 06018KT 16/07 A3013 RMK A01 T01550066  RH  055%=      5-min Rain = 0
KAD1 222147Z 06018KT 16/07 A3013 RMK A01 T01550065  RH  055%=      5-min Rain = 0
KAD1 222148Z 06018KT 16/07 A3013 RMK A01 T01560066  RH  055%=      5-min Rain = 0
KAD1 222149Z 05022KT 16/07 A3013 RMK A01 T01560065  RH  055%=      5-min Rain = 0
KAD1 222150Z 06023KT 16/06 A3013 RMK A01 T01550064  RH  055%=      5-min Rain = 0
KAD1 222151Z 06021KT 15/06 A3013 RMK A01 T01540064  RH  055%=      5-min Rain = 0
KAD1 222152Z 06023KT 15/06 A3013 RMK A01 T01540064  RH  055%=      5-min Rain = 0
KAD1 222153Z 06019KT 15/06 A3013 RMK A01 T01540064  RH  055%=      5-min Rain = 0
KAD1 222154Z 06021KT 15/07 A3013 RMK A01 T01530065  RH  056%=      5-min Rain = 0
KAD1 222155Z 06021KT 15/07 A3013 RMK A01 T01540065  RH  055%=      5-min Rain = 0
KAD1 222156Z 07022KT 15/07 A3013 RMK A01 T01540065  RH  055%=      5-min Rain = 0
KAD1 222157Z 06023KT 15/07 A3013 RMK A01 T01530065  RH  056%=      5-min Rain = 0
KAD1 222158Z 06022KT 15/07 A3012 RMK A01 T01530066  RH  056%=      5-min Rain = 0
KAD1 222159Z 07020KT 15/07 A3012 RMK A01 T01530066  RH  056%=      5-min Rain = 0
KAD1 222200Z 07020KT 15/07 A3012 RMK A01 T01540067  RH  056%=      5-min Rain = 0
KAD1 222201Z 07023KT 15/07 A3012 RMK A01 T01540067  RH  056%=      5-min Rain = 0
KAD1 222202Z 07022KT 15/07 A3012 RMK A01 T01530065  RH  056%=      5-min Rain = 0
KAD1 222203Z 07021KT 15/07 A3012 RMK A01 T01530066  RH  056%=      5-min Rain = 0
KAD1 222204Z 06020KT 15/07 A3012 RMK A01 T01530066  RH  056%=      5-min Rain = 0
KAD1 222205Z 06019KT 15/07 A3012 RMK A01 T01530066  RH  056%=      5-min Rain = 0
KAD1 222206Z 06021G26KT 15/07 A3012 RMK A01 T01530066  RH  056%=      5-min Rain = 0
KAD1 222207Z 07021KT 15/07 A3012 RMK A01 T01530065  RH  056%=      5-min Rain = 0
KAD1 222208Z 07020KT 15/07 A3012 RMK A01 T01530066  RH  056%=      5-min Rain = 0
KAD1 222209Z 06020KT 15/07 A3012 RMK A01 T01530066  RH  056%=      5-min Rain = 0
KAD1 222210Z 06019KT 15/07 A3012 RMK A01 T01530066  RH  056%=      5-min Rain = 0
KAD1 222211Z 06020KT 15/07 A3012 RMK A01 T01530066  RH  056%=      5-min Rain = 0
KAD1 222212Z 05021KT 15/07 A3012 RMK A01 T01530066  RH  056%=      5-min Rain = 0
KAD1 222213Z 06020KT 15/07 A3012 RMK A01 T01530067  RH  056%=      5-min Rain = 0
KAD1 222214Z 06021KT 15/07 A3012 RMK A01 T01530067  RH  057%=      5-min Rain = 0
KAD1 222215Z 06021KT 15/07 A3012 RMK A01 T01530067  RH  057%=      5-min Rain = 0
KAD1 222216Z 06021KT 15/07 A3012 RMK A01 T01530066  RH  056%=      5-min Rain = 0
KAD1 222217Z 05021KT 15/07 A3012 RMK A01 T01520067  RH  057%=      5-min Rain = 0
KAD1 222218Z 06020KT 15/07 A3012 RMK A01 T01520067  RH  057%=      5-min Rain = 0
KAD1 222219Z 06019KT 15/07 A3012 RMK A01 T01520068  RH  057%=      5-min Rain = 0
KAD1 222220Z 06021KT 15/07 A3012 RMK A01 T01520068  RH  057%=      5-min Rain = 0
KAD1 222221Z 07019KT 15/07 A3012 RMK A01 T01520069  RH  057%=      5-min Rain = 0
KAD1 222222Z 06021KT 15/07 A3012 RMK A01 T01530069  RH  057%=      5-min Rain = 0
KAD1 222223Z 06021KT 15/07 A3012 RMK A01 T01530069  RH  057%=      5-min Rain = 0
KAD1 222224Z 06022KT 15/07 A3012 RMK A01 T01530068  RH  057%=      5-min Rain = 0
KAD1 222225Z 06020KT 15/07 A3012 RMK A01 T01520068  RH  058%=      5-min Rain = 0
KAD1 222226Z 06019KT 15/07 A3012 RMK A01 T01520069  RH  058%=      5-min Rain = 0
KAD1 222227Z 06021KT 15/07 A3012 RMK A01 T01520069  RH  058%=      5-min Rain = 0
KAD1 222228Z 06021KT 15/07 A3011 RMK A01 T01520068  RH  057%=      5-min Rain = 0
KAD1 222229Z 06019KT 15/07 A3011 RMK A01 T01510068  RH  057%=      5-min Rain = 0
KAD1 222230Z 07019KT 15/07 A3011 RMK A01 T01510068  RH  058%=      5-min Rain = 0
KAD1 222231Z 06019KT 15/07 A3012 RMK A01 T01520070  RH  058%=      5-min Rain = 0
KAD1 222232Z 06020KT 15/07 A3012 RMK A01 T01530069  RH  057%=      5-min Rain = 0
KAD1 222233Z 05017KT 15/07 A3012 RMK A01 T01530069  RH  057%=      5-min Rain = 0
KAD1 222234Z 05021KT 15/07 A3011 RMK A01 T01530069  RH  057%=      5-min Rain = 0
KAD1 222235Z 05020KT 15/07 A3011 RMK A01 T01530068  RH  057%=      5-min Rain = 0
KAD1 222236Z 05020KT 15/07 A3011 RMK A01 T01530069  RH  057%=      5-min Rain = 0
KAD1 222237Z 06022KT 15/07 A3011 RMK A01 T01530068  RH  057%=      5-min Rain = 0
KAD1 222238Z 06019KT 15/07 A3011 RMK A01 T01530068  RH  057%=      5-min Rain = 0
KAD1 222239Z 07020KT 15/07 A3011 RMK A01 T01530068  RH  057%=      5-min Rain = 0
KAD1 222240Z 06019KT 15/07 A3011 RMK A01 T01530068  RH  057%=      5-min Rain = 0
KAD1 222241Z 06019KT 15/07 A3011 RMK A01 T01530068  RH  057%=      5-min Rain = 0
KAD1 222242Z 06017KT 15/07 A3011 RMK A01 T01530068  RH  057%=      5-min Rain = 0
KAD1 222243Z 07016KT 15/07 A3011 RMK A01 T01530069  RH  057%=      5-min Rain = 0
KAD1 222244Z 07016KT 15/07 A3011 RMK A01 T01540070  RH  057%=      5-min Rain = 0
KAD1 222245Z 06017KT 16/07 A3011 RMK A01 T01550069  RH  057%=      5-min Rain = 0
KAD1 222246Z 06020KT 15/07 A3011 RMK A01 T01540069  RH  057%=      5-min Rain = 0
KAD1 222247Z 05019KT 15/07 A3011 RMK A01 T01530068  RH  057%=      5-min Rain = 0
KAD1 222248Z 06019KT 15/07 A3011 RMK A01 T01520067  RH  057%=      5-min Rain = 0
KAD1 222249Z 06020KT 15/07 A3011 RMK A01 T01520068  RH  057%=      5-min Rain = 0
KAD1 222250Z 07019KT 15/07 A3011 RMK A01 T01510068  RH  057%=      5-min Rain = 0
KAD1 222251Z 07018KT 15/07 A3011 RMK A01 T01510068  RH  058%=      5-min Rain = 0
KAD1 222252Z 06019KT 15/07 A3011 RMK A01 T01510069  RH  058%=      5-min Rain = 0
KAD1 222253Z 07019KT 15/07 A3011 RMK A01 T01510068  RH  057%=      5-min Rain = 0
KAD1 222254Z 06017KT 15/07 A3011 RMK A01 T01510068  RH  058%=      5-min Rain = 0
KAD1 222255Z 06015KT 15/07 A3011 RMK A01 T01500069  RH  058%=      5-min Rain = 0
KAD1 222256Z 06018KT 15/07 A3011 RMK A01 T01510069  RH  058%=      5-min Rain = 0
KAD1 222257Z 07016G21KT 15/07 A3011 RMK A01 T01500068  RH  058%=      5-min Rain = 0
KAD1 222258Z 07021KT 15/07 A3011 RMK A01 T01500068  RH  058%=      5-min Rain = 0
KAD1 222259Z 06019KT 15/07 A3011 RMK A01 T01490066  RH  058%=      5-min Rain = 0
KAD1 222300Z 06018KT 15/07 A3012 RMK A01 T01480067  RH  058%=      5-min Rain = 0
KAD1 222301Z 06019KT 15/07 A3012 RMK A01 T01480068  RH  058%=      5-min Rain = 0
KAD1 222302Z 06018KT 15/07 A3012 RMK A01 T01480067  RH  059%=      5-min Rain = 0
KAD1 222303Z 06016KT 15/07 A3012 RMK A01 T01480068  RH  059%=      5-min Rain = 0
KAD1 222304Z 07015KT 15/07 A3012 RMK A01 T01480069  RH  059%=      5-min Rain = 0
KAD1 222305Z 07015KT 15/07 A3012 RMK A01 T01480068  RH  059%=      5-min Rain = 0
KAD1 222306Z 06016KT 15/07 A3012 RMK A01 T01480068  RH  059%=      5-min Rain = 0
KAD1 222307Z 05017KT 15/07 A3011 RMK A01 T01480068  RH  058%=      5-min Rain = 0
KAD1 222308Z 07018KT 15/07 A3012 RMK A01 T01480068  RH  059%=      5-min Rain = 0
KAD1 222309Z 06019KT 15/07 A3011 RMK A01 T01480068  RH  059%=      5-min Rain = 0
KAD1 222310Z 06018KT 15/07 A3011 RMK A01 T01480067  RH  059%=      5-min Rain = 0
KAD1 222311Z 06019KT 15/07 A3011 RMK A01 T01480067  RH  059%=      5-min Rain = 0
KAD1 222312Z 06017KT 15/07 A3011 RMK A01 T01480068  RH  059%=      5-min Rain = 0
KAD1 222313Z 07017KT 15/07 A3011 RMK A01 T01480068  RH  059%=      5-min Rain = 0
KAD1 222314Z 06019KT 15/07 A3011 RMK A01 T01480067  RH  059%=      5-min Rain = 0
KAD1 222315Z 06017KT 15/07 A3012 RMK A01 T01470067  RH  059%=      5-min Rain = 0
KAD1 222316Z 06018KT 15/07 A3012 RMK A01 T01470067  RH  059%=      5-min Rain = 0
KAD1 222317Z 06016G21KT 15/07 A3012 RMK A01 T01470068  RH  059%=      5-min Rain = 0
KAD1 222318Z 07017KT 15/07 A3012 RMK A01 T01470068  RH  059%=      5-min Rain = 0
KAD1 222319Z 07017KT 15/07 A3012 RMK A01 T01470068  RH  059%=      5-min Rain = 0
KAD1 222320Z 07016KT 15/07 A3012 RMK A01 T01470068  RH  059%=      5-min Rain = 0
KAD1 222321Z 07019KT 15/07 A3012 RMK A01 T01470068  RH  059%=      5-min Rain = 0
KAD1 222322Z 07018KT 15/07 A3012 RMK A01 T01470067  RH  059%=      5-min Rain = 0
KAD1 222323Z 06018KT 15/07 A3012 RMK A01 T01460066  RH  059%=      5-min Rain = 0
KAD1 222324Z 06020KT 15/07 A3012 RMK A01 T01460066  RH  059%=      5-min Rain = 0
KAD1 222325Z 07020KT 15/07 A3012 RMK A01 T01460066  RH  059%=      5-min Rain = 0
KAD1 222326Z 08019KT 15/07 A3012 RMK A01 T01450066  RH  059%=      5-min Rain = 0
KAD1 222327Z 08021KT 15/07 A3012 RMK A01 T01450066  RH  059%=      5-min Rain = 0
KAD1 222328Z 08020KT 15/07 A3012 RMK A01 T01450066  RH  059%=      5-min Rain = 0
KAD1 222329Z 07019KT 14/07 A3012 RMK A01 T01440066  RH  059%=      5-min Rain = 0
KAD1 222330Z 07019KT 14/07 A3012 RMK A01 T01440067  RH  060%=      5-min Rain = 0
KAD1 222331Z 07019KT 14/07 A3012 RMK A01 T01430067  RH  060%=      5-min Rain = 0
KAD1 222332Z 07019KT 14/07 A3012 RMK A01 T01430068  RH  061%=      5-min Rain = 0
KAD1 222333Z 07021KT 14/07 A3012 RMK A01 T01430068  RH  061%=      5-min Rain = 0
KAD1 222334Z 07020KT 14/07 A3012 RMK A01 T01420067  RH  061%=      5-min Rain = 0
KAD1 222335Z 07019KT 14/07 A3012 RMK A01 T01420068  RH  061%=      5-min Rain = 0
KAD1 222336Z 07019KT 14/07 A3012 RMK A01 T01410068  RH  061%=      5-min Rain = 0
KAD1 222337Z 07019KT 14/07 A3012 RMK A01 T01410067  RH  061%=      5-min Rain = 0
KAD1 222338Z 07018KT 14/07 A3012 RMK A01 T01400068  RH  062%=      5-min Rain = 0
KAD1 222339Z 07019KT 14/07 A3012 RMK A01 T01400068  RH  062%=      5-min Rain = 0
KAD1 222340Z 07017KT 14/07 A3012 RMK A01 T01390068  RH  062%=      5-min Rain = 0
KAD1 222341Z 07018KT 14/07 A3012 RMK A01 T01390069  RH  063%=      5-min Rain = 0
KAD1 222342Z 07018KT 14/07 A3012 RMK A01 T01380070  RH  063%=      5-min Rain = 0
KAD1 222343Z 07015KT 14/07 A3012 RMK A01 T01370072  RH  065%=      5-min Rain = 0
KAD1 222344Z 07019KT 14/07 A3012 RMK A01 T01360073  RH  066%=      5-min Rain = 0
KAD1 222345Z 07018KT 14/07 A3012 RMK A01 T01350072  RH  066%=      5-min Rain = 0
KAD1 222346Z 07018KT 13/07 A3012 RMK A01 T01330072  RH  066%=      5-min Rain = 0
KAD1 222347Z 07017KT 13/07 A3013 RMK A01 T01330073  RH  067%=      5-min Rain = 0
KAD1 222348Z 07017KT 13/07 A3013 RMK A01 T01320073  RH  067%=      5-min Rain = 0
KAD1 222349Z 07013KT 13/08 A3013 RMK A01 T01320076  RH  069%=      5-min Rain = 0
KAD1 222350Z 07013KT 13/08 A3013 RMK A01 T01300077  RH  070%=      5-min Rain = 0
KAD1 222351Z 07013KT 13/08 A3013 RMK A01 T01300076  RH  070%=      5-min Rain = 0
KAD1 222352Z 07014KT 13/08 A3013 RMK A01 T01300077  RH  070%=      5-min Rain = 0
KAD1 222353Z 07015KT 13/08 A3013 RMK A01 T01300075  RH  069%=      5-min Rain = 0
KAD1 222354Z 07016KT 13/07 A3013 RMK A01 T01300073  RH  068%=      5-min Rain = 0
KAD1 222355Z 08014KT 13/07 A3013 RMK A01 T01310074  RH  068%=      5-min Rain = 0
KAD1 222356Z 08013KT 13/08 A3014 RMK A01 T01310075  RH  069%=      5-min Rain = 0
KAD1 222357Z 08012KT 13/08 A3014 RMK A01 T01300076  RH  070%=      5-min Rain = 0
KAD1 222358Z 08012KT 13/08 A3014 RMK A01 T01300077  RH  070%=      5-min Rain = 0
KAD1 222359Z 08011KT 13/08 A3014 RMK A01 T01290079  RH  071%=      5-min Rain = 0
KAD1 230000Z 07011KT 13/08 A3014 RMK A01 T01290079  RH  072%=      5-min Rain = 0
KAD1 230001Z 07015KT 13/08 A3014 RMK A01 T01280078  RH  072%=      5-min Rain = 0
KAD1 230002Z 08014KT 13/08 A3014 RMK A01 T01290075  RH  070%=      5-min Rain = 0
KAD1 230003Z 07014KT 13/08 A3014 RMK A01 T01290076  RH  070%=      5-min Rain = 0
KAD1 230004Z 07013KT 13/08 A3014 RMK A01 T01280076  RH  071%=      5-min Rain = 0
KAD1 230005Z 07013KT 13/08 A3014 RMK A01 T01280078  RH  072%=      5-min Rain = 0
KAD1 230006Z 07014KT 13/08 A3014 RMK A01 T01270077  RH  072%=      5-min Rain = 0
KAD1 230007Z 07014KT 13/08 A3014 RMK A01 T01270078  RH  072%=      5-min Rain = 0
KAD1 230008Z 07012KT 13/08 A3014 RMK A01 T01260078  RH  073%=      5-min Rain = 0
KAD1 230009Z 07014KT 13/08 A3014 RMK A01 T01260080  RH  073%=      5-min Rain = 0
KAD1 230010Z 07012KT 13/08 A3014 RMK A01 T01250078  RH  073%=      5-min Rain = 0
KAD1 230011Z 07011KT 13/08 A3014 RMK A01 T01260079  RH  073%=      5-min Rain = 0
KAD1 230012Z 07011KT 13/08 A3014 RMK A01 T01250081  RH  074%=      5-min Rain = 0
KAD1 230013Z 07012KT 13/08 A3014 RMK A01 T01250080  RH  074%=      5-min Rain = 0
KAD1 230014Z 07010KT 13/08 A3014 RMK A01 T01250079  RH  074%=      5-min Rain = 0
KAD1 230015Z 07011KT 13/08 A3014 RMK A01 T01250082  RH  075%=      5-min Rain = 0
KAD1 230016Z 08013KT 13/08 A3014 RMK A01 T01250080  RH  074%=      5-min Rain = 0
KAD1 230017Z 07014KT 13/08 A3014 RMK A01 T01250079  RH  074%=      5-min Rain = 0
KAD1 230018Z 07013KT 13/08 A3014 RMK A01 T01250078  RH  073%=      5-min Rain = 0
KAD1 230019Z 07013KT 13/08 A3013 RMK A01 T01250079  RH  074%=      5-min Rain = 0
KAD1 230020Z 07013KT 13/08 A3013 RMK A01 T01250079  RH  074%=      5-min Rain = 0
KAD1 230021Z 07013KT 13/08 A3014 RMK A01 T01250079  RH  074%=      5-min Rain = 0
KAD1 230022Z 07013KT 13/08 A3014 RMK A01 T01250079  RH  074%=      5-min Rain = 0
KAD1 230023Z 07011KT 13/08 A3014 RMK A01 T01250080  RH  074%=      5-min Rain = 0
KAD1 230024Z 07011KT 12/08 A3014 RMK A01 T01240082  RH  075%=      5-min Rain = 0
KAD1 230025Z 07012KT 12/08 A3014 RMK A01 T01230080  RH  075%=      5-min Rain = 0
KAD1 230026Z 07010KT 12/08 A3014 RMK A01 T01230082  RH  076%=      5-min Rain = 0
KAD1 230027Z 07012KT 12/08 A3014 RMK A01 T01230082  RH  076%=      5-min Rain = 0
KAD1 230028Z 07015KT 12/08 A3013 RMK A01 T01230078  RH  074%=      5-min Rain = 0
KAD1 230029Z 07012KT 12/08 A3014 RMK A01 T01230079  RH  074%=      5-min Rain = 0
KAD1 230030Z 07012KT 12/08 A3014 RMK A01 T01230080  RH  075%=      5-min Rain = 0
KAD1 230031Z 07014KT 12/08 A3014 RMK A01 T01220079  RH  075%=      5-min Rain = 0
KAD1 230032Z 07014KT 12/08 A3014 RMK A01 T01220077  RH  074%=      5-min Rain = 0
KAD1 230033Z 07013KT 12/08 A3014 RMK A01 T01220078  RH  074%=      5-min Rain = 0
KAD1 230034Z 07013KT 12/08 A3014 RMK A01 T01220078  RH  074%=      5-min Rain = 0
KAD1 230035Z 07013KT 12/08 A3014 RMK A01 T01220078  RH  075%=      5-min Rain = 0
KAD1 230036Z 07014KT 12/08 A3014 RMK A01 T01210078  RH  075%=      5-min Rain = 0
KAD1 230037Z 07014KT 12/08 A3014 RMK A01 T01210078  RH  075%=      5-min Rain = 0
KAD1 230038Z 07015KT 12/08 A3013 RMK A01 T01200077  RH  075%=      5-min Rain = 0
KAD1 230039Z 07015KT 12/08 A3013 RMK A01 T01210076  RH  074%=      5-min Rain = 0
KAD1 230040Z 07014KT 12/08 A3013 RMK A01 T01210076  RH  074%=      5-min Rain = 0
KAD1 230041Z 07014KT 12/08 A3013 RMK A01 T01200077  RH  074%=      5-min Rain = 0
KAD1 230042Z 07015KT 12/08 A3013 RMK A01 T01200077  RH  075%=      5-min Rain = 0
KAD1 230043Z 07016KT 12/08 A3014 RMK A01 T01200076  RH  075%=      5-min Rain = 0
KAD1 230044Z 07016KT 12/07 A3014 RMK A01 T01200074  RH  074%=      5-min Rain = 0
KAD1 230045Z 07015KT 12/08 A3014 RMK A01 T01200076  RH  074%=      5-min Rain = 0
KAD1 230046Z 07015KT 12/08 A3014 RMK A01 T01190076  RH  075%=      5-min Rain = 0
KAD1 230047Z 07015KT 12/08 A3014 RMK A01 T01190077  RH  075%=      5-min Rain = 0
KAD1 230048Z 07014KT 12/08 A3014 RMK A01 T01190077  RH  076%=      5-min Rain = 0
KAD1 230049Z 07015KT 12/08 A3014 RMK A01 T01180078  RH  076%=      5-min Rain = 0
KAD1 230050Z 07015KT 12/08 A3014 RMK A01 T01180076  RH  076%=      5-min Rain = 0
KAD1 230051Z 07014KT 12/08 A3014 RMK A01 T01170078  RH  077%=      5-min Rain = 0
KAD1 230052Z 08015KT 12/08 A3014 RMK A01 T01170078  RH  077%=      5-min Rain = 0
KAD1 230053Z 08014KT 12/08 A3014 RMK A01 T01170077  RH  077%=      5-min Rain = 0
KAD1 230054Z 08017KT 12/08 A3014 RMK A01 T01170077  RH  077%=      5-min Rain = 0
KAD1 230055Z 07016KT 12/08 A3014 RMK A01 T01160077  RH  077%=      5-min Rain = 0
KAD1 230056Z 08016KT 12/08 A3014 RMK A01 T01160077  RH  077%=      5-min Rain = 0
KAD1 230057Z 07014KT 12/08 A3014 RMK A01 T01150078  RH  078%=      5-min Rain = 0
KAD1 230058Z 07013KT 11/08 A3014 RMK A01 T01140080  RH  080%=      5-min Rain = 0
KAD1 230059Z 07014KT 11/08 A3014 RMK A01 T01130080  RH  080%=      5-min Rain = 0
KAD1 230100Z 08014KT 11/08 A3014 RMK A01 T01130080  RH  080%=      5-min Rain = 0
KAD1 230101Z 07015KT 11/08 A3014 RMK A01 T01120080  RH  080%=      5-min Rain = 0
KAD1 230102Z 08015KT 11/08 A3014 RMK A01 T01120080  RH  080%=      5-min Rain = 0
KAD1 230103Z 07015KT 11/08 A3014 RMK A01 T01120079  RH  080%=      5-min Rain = 0
KAD1 230104Z 07014KT 11/08 A3014 RMK A01 T01120079  RH  080%=      5-min Rain = 0
KAD1 230105Z 07013KT 11/08 A3014 RMK A01 T01110079  RH  081%=      5-min Rain = 0
KAD1 230106Z 08013KT 11/08 A3014 RMK A01 T01110081  RH  082%=      5-min Rain = 0
KAD1 230107Z 08012KT 11/08 A3014 RMK A01 T01100082  RH  083%=      5-min Rain = 0
KAD1 230108Z 08012KT 11/08 A3014 RMK A01 T01090082  RH  083%=      5-min Rain = 0
KAD1 230109Z 08012KT 11/08 A3015 RMK A01 T01090082  RH  083%=      5-min Rain = 0
KAD1 230110Z 08012KT 11/08 A3015 RMK A01 T01090083  RH  084%=      5-min Rain = 0
KAD1 230111Z 08012KT 11/08 A3015 RMK A01 T01090083  RH  084%=      5-min Rain = 0
KAD1 230112Z 08012KT 11/08 A3015 RMK A01 T01080084  RH  085%=      5-min Rain = 0
KAD1 230113Z 08013KT 11/08 A3015 RMK A01 T01080082  RH  084%=      5-min Rain = 0
KAD1 230114Z 08013KT 11/08 A3015 RMK A01 T01080083  RH  084%=      5-min Rain = 0
KAD1 230115Z 08012KT 11/08 A3015 RMK A01 T01080082  RH  084%=      5-min Rain = 0
KAD1 230116Z 08011KT 11/08 A3015 RMK A01 T01080083  RH  085%=      5-min Rain = 0
KAD1 230117Z 08013KT 11/08 A3015 RMK A01 T01080084  RH  085%=      5-min Rain = 0.01
KAD1 230118Z 08011KT 11/08 A3015 RMK A01 T01070083  RH  085%=      5-min Rain = 0
KAD1 230119Z 07014KT 11/08 A3015 RMK A01 T01080084  RH  085%=      5-min Rain = 0
KAD1 230120Z 07013KT 11/08 A3015 RMK A01 T01070083  RH  085%=      5-min Rain = 0
KAD1 230121Z 08012KT 11/08 A3014 RMK A01 T01070083  RH  085%=      5-min Rain = 0
KAD1 230122Z 07013KT 11/08 A3014 RMK A01 T01070084  RH  085%=      5-min Rain = 0
KAD1 230123Z 07013KT 11/08 A3014 RMK A01 T01070083  RH  085%=      5-min Rain = 0
KAD1 230124Z 07013KT 11/08 A3014 RMK A01 T01070083  RH  085%=      5-min Rain = 0
KAD1 230125Z 07013KT 11/08 A3014 RMK A01 T01070083  RH  085%=      5-min Rain = 0
KAD1 230126Z 07013KT 11/08 A3014 RMK A01 T01070084  RH  086%=      5-min Rain = 0
KAD1 230127Z 07012KT 11/08 A3015 RMK A01 T01060084  RH  086%=      5-min Rain = 0
KAD1 230128Z 07013KT 11/08 A3014 RMK A01 T01060084  RH  086%=      5-min Rain = 0
KAD1 230129Z 07013KT 11/08 A3015 RMK A01 T01060084  RH  086%=      5-min Rain = 0
KAD1 230130Z 07013KT 11/09 A3015 RMK A01 T01060085  RH  087%=      5-min Rain = 0
KAD1 230131Z 07013KT 11/08 A3015 RMK A01 T01050084  RH  087%=      5-min Rain = 0
KAD1 230132Z 07012KT 11/09 A3015 RMK A01 T01050085  RH  087%=      5-min Rain = 0
KAD1 230133Z 07012KT 11/09 A3015 RMK A01 T01060085  RH  087%=      5-min Rain = 0
KAD1 230134Z 07013KT 11/09 A3015 RMK A01 T01050085  RH  087%=      5-min Rain = 0
KAD1 230135Z 07012KT 11/08 A3015 RMK A01 T01050084  RH  087%=      5-min Rain = 0
KAD1 230136Z 07013KT 11/09 A3015 RMK A01 T01050085  RH  087%=      5-min Rain = 0
KAD1 230137Z 07012KT 11/08 A3015 RMK A01 T01050084  RH  087%=      5-min Rain = 0
KAD1 230138Z 07013KT 11/08 A3015 RMK A01 T01050084  RH  087%=      5-min Rain = 0
KAD1 230139Z 07013KT 11/08 A3015 RMK A01 T01050084  RH  087%=      5-min Rain = 0
KAD1 230140Z 07013KT 11/08 A3015 RMK A01 T01050084  RH  087%=      5-min Rain = 0
KAD1 230141Z 07012KT 10/09 A3014 RMK A01 T01040085  RH  087%=      5-min Rain = 0
KAD1 230142Z 07013KT 10/09 A3014 RMK A01 T01040085  RH  088%=      5-min Rain = 0
KAD1 230143Z 07013KT 10/09 A3014 RMK A01 T01040085  RH  088%=      5-min Rain = 0
KAD1 230144Z 07012KT 10/09 A3014 RMK A01 T01040085  RH  088%=      5-min Rain = 0
KAD1 230145Z 07012KT 10/09 A3014 RMK A01 T01030085  RH  089%=      5-min Rain = 0
KAD1 230146Z 07013KT 10/09 A3014 RMK A01 T01030085  RH  089%=      5-min Rain = 0
KAD1 230147Z 07014KT 10/08 A3014 RMK A01 T01030084  RH  088%=      5-min Rain = 0
KAD1 230148Z 07014KT 10/08 A3014 RMK A01 T01030084  RH  088%=      5-min Rain = 0
KAD1 230149Z 07014KT 10/08 A3014 RMK A01 T01030083  RH  087%=      5-min Rain = 0
KAD1 230150Z 07013KT 10/08 A3014 RMK A01 T01040084  RH  088%=      5-min Rain = 0.01
KAD1 230151Z 07013KT 10/08 A3014 RMK A01 T01030084  RH  088%=      5-min Rain = 0
KAD1 230152Z 07012KT 10/09 A3014 RMK A01 T01030085  RH  089%=      5-min Rain = 0
KAD1 230153Z 07014KT 10/09 A3014 RMK A01 T01030085  RH  089%=      5-min Rain = 0
KAD1 230154Z 07013KT 10/09 A3014 RMK A01 T01030085  RH  089%=      5-min Rain = 0
KAD1 230155Z 07014KT 10/09 A3014 RMK A01 T01030085  RH  089%=      5-min Rain = 0
KAD1 230156Z 07014KT 10/09 A3014 RMK A01 T01020085  RH  089%=      5-min Rain = 0
KAD1 230157Z 07013KT 10/09 A3014 RMK A01 T01020085  RH  089%=      5-min Rain = 0
KAD1 230158Z 07013KT 10/09 A3014 RMK A01 T01020085  RH  089%=      5-min Rain = 0
KAD1 230159Z 07013KT 10/09 A3014 RMK A01 T01020085  RH  089%=      5-min Rain = 0
KAD1 230200Z 07015KT 10/09 A3014 RMK A01 T01020086  RH  090%=      5-min Rain = 0
KAD1 230201Z 07014KT 10/09 A3014 RMK A01 T01020085  RH  089%=      5-min Rain = 0.01
KAD1 230202Z 07015KT 10/09 A3014 RMK A01 T01020085  RH  089%=      5-min Rain = 0
KAD1 230203Z 07014KT 10/09 A3014 RMK A01 T01020085  RH  089%=      5-min Rain = 0
KAD1 230204Z 07014KT 10/09 A3014 RMK A01 T01020086  RH  090%=      5-min Rain = 0
KAD1 230205Z 07016KT 10/09 A3014 RMK A01 T01020086  RH  090%=      5-min Rain = 0
KAD1 230206Z 07016KT 10/09 A3014 RMK A01 T01020086  RH  090%=      5-min Rain = 0
KAD1 230207Z 08015KT 10/09 A3014 RMK A01 T01020085  RH  090%=      5-min Rain = 0
KAD1 230208Z 07015KT 10/09 A3014 RMK A01 T01010086  RH  090%=      5-min Rain = 0
KAD1 230209Z 07015KT 10/09 A3014 RMK A01 T01010086  RH  090%=      5-min Rain = 0
KAD1 230210Z 08015KT 10/09 A3014 RMK A01 T01010086  RH  091%=      5-min Rain = 0
KAD1 230211Z 08015KT 10/09 A3014 RMK A01 T01010086  RH  091%=      5-min Rain = 0
KAD1 230212Z 08015KT 10/09 A3014 RMK A01 T01010087  RH  091%=      5-min Rain = 0
KAD1 230213Z 08015KT 10/09 A3014 RMK A01 T01010086  RH  091%=      5-min Rain = 0
KAD1 230214Z 08015KT 10/09 A3014 RMK A01 T01010087  RH  091%=      5-min Rain = 0
KAD1 230215Z 08015KT 10/09 A3014 RMK A01 T01000087  RH  091%=      5-min Rain = 0
KAD1 230216Z 08015KT 10/09 A3014 RMK A01 T01000087  RH  091%=      5-min Rain = 0
KAD1 230217Z 08014KT 10/09 A3014 RMK A01 T01010088  RH  092%=      5-min Rain = 0
KAD1 230218Z 08016KT 10/09 A3014 RMK A01 T01000087  RH  092%=      5-min Rain = 0
KAD1 230219Z 08017KT 10/09 A3014 RMK A01 T01000087  RH  092%=      5-min Rain = 0
KAD1 230220Z 08016KT 10/09 A3014 RMK A01 T01000086  RH  091%=      5-min Rain = 0
KAD1 230221Z 08016KT 10/09 A3014 RMK A01 T01000087  RH  091%=      5-min Rain = 0.01
KAD1 230222Z 08016KT 10/09 A3014 RMK A01 T01000087  RH  092%=      5-min Rain = 0
KAD1 230223Z 08015KT 10/09 A3014 RMK A01 T01000087  RH  092%=      5-min Rain = 0
KAD1 230224Z 08016KT 10/09 A3014 RMK A01 T01000088  RH  092%=      5-min Rain = 0
KAD1 230225Z 08015KT 10/09 A3014 RMK A01 T01000087  RH  092%=      5-min Rain = 0
KAD1 230226Z 08016KT 10/09 A3014 RMK A01 T01000087  RH  092%=      5-min Rain = 0
KAD1 230227Z 08015KT 10/09 A3014 RMK A01 T01000087  RH  092%=      5-min Rain = 0
KAD1 230228Z 08015KT 10/09 A3014 RMK A01 T01000087  RH  092%=      5-min Rain = 0
KAD1 230229Z 08014KT 10/09 A3014 RMK A01 T01000088  RH  092%=      5-min Rain = 0
KAD1 230230Z 07017KT 10/09 A3014 RMK A01 T00990088  RH  093%=      5-min Rain = 0
KAD1 230231Z 08015KT 10/09 A3014 RMK A01 T00990088  RH  092%=      5-min Rain = 0
KAD1 230232Z 08016KT 10/09 A3014 RMK A01 T00990087  RH  093%=      5-min Rain = 0
KAD1 230233Z 08018KT 10/09 A3014 RMK A01 T00990088  RH  093%=      5-min Rain = 0
KAD1 230234Z 08018KT 10/09 A3014 RMK A01 T00990087  RH  092%=      5-min Rain = 0
KAD1 230235Z 08016KT 10/09 A3014 RMK A01 T00990086  RH  092%=      5-min Rain = 0
KAD1 230236Z 08017KT 10/09 A3014 RMK A01 T00990087  RH  092%=      5-min Rain = 0
KAD1 230237Z 08015KT 10/09 A3014 RMK A01 T00990087  RH  092%=      5-min Rain = 0
KAD1 230238Z 08015KT 10/09 A3014 RMK A01 T00990087  RH  092%=      5-min Rain = 0
KAD1 230239Z 08015KT 10/09 A3014 RMK A01 T00990087  RH  092%=      5-min Rain = 0
KAD1 230240Z 08015KT 10/09 A3014 RMK A01 T00990087  RH  092%=      5-min Rain = 0
KAD1 230241Z 08015KT 10/09 A3014 RMK A01 T00980087  RH  092%=      5-min Rain = 0
KAD1 230242Z 08015KT 10/09 A3014 RMK A01 T00990087  RH  092%=      5-min Rain = 0
KAD1 230243Z 08016KT 10/09 A3014 RMK A01 T00990087  RH  093%=      5-min Rain = 0
KAD1 230244Z 08013KT 10/09 A3014 RMK A01 T00990087  RH  093%=      5-min Rain = 0
KAD1 230245Z 08014KT 10/09 A3014 RMK A01 T00990088  RH  093%=      5-min Rain = 0
KAD1 230246Z 08015KT 10/09 A3014 RMK A01 T00980087  RH  093%=      5-min Rain = 0
KAD1 230247Z 08014KT 10/09 A3014 RMK A01 T00980087  RH  093%=      5-min Rain = 0
KAD1 230248Z 08013KT 10/09 A3014 RMK A01 T00980087  RH  093%=      5-min Rain = 0
KAD1 230249Z 08013KT 10/09 A3014 RMK A01 T00980087  RH  093%=      5-min Rain = 0
KAD1 230250Z 08014KT 10/09 A3014 RMK A01 T00980088  RH  093%=      5-min Rain = 0
KAD1 230251Z 08013KT 10/09 A3014 RMK A01 T00980088  RH  093%=      5-min Rain = 0
KAD1 230252Z 08015KT 10/09 A3014 RMK A01 T00980088  RH  093%=      5-min Rain = 0.01
KAD1 230253Z 08014KT 10/09 A3014 RMK A01 T00980088  RH  093%=      5-min Rain = 0
KAD1 230254Z 08015KT 10/09 A3014 RMK A01 T00980088  RH  093%=      5-min Rain = 0
KAD1 230255Z 08015KT 10/09 A3014 RMK A01 T00980088  RH  093%=      5-min Rain = 0
KAD1 230256Z 08013KT 10/09 A3014 RMK A01 T00980088  RH  093%=      5-min Rain = 0
KAD1 230257Z 08013KT 10/09 A3015 RMK A01 T00980088  RH  093%=      5-min Rain = 0
KAD1 230258Z 07013KT 10/09 A3015 RMK A01 T00980088  RH  094%=      5-min Rain = 0
KAD1 230259Z 08013KT 10/09 A3015 RMK A01 T00980088  RH  094%=      5-min Rain = 0
KAD1 230300Z 08013KT 10/09 A3015 RMK A01 T00980088  RH  094%=      5-min Rain = 0
KAD1 230301Z 08013KT 10/09 A3015 RMK A01 T00980088  RH  094%=      5-min Rain = 0
KAD1 230302Z 08013KT 10/09 A3015 RMK A01 T00980088  RH  094%=      5-min Rain = 0
KAD1 230303Z 08012KT 10/09 A3015 RMK A01 T00980088  RH  094%=      5-min Rain = 0
KAD1 230304Z 08012KT 10/09 A3015 RMK A01 T00980088  RH  094%=      5-min Rain = 0
KAD1 230305Z 07012KT 10/09 A3015 RMK A01 T00980089  RH  094%=      5-min Rain = 0
KAD1 230306Z 07014KT 10/09 A3015 RMK A01 T00980089  RH  094%=      5-min Rain = 0
KAD1 230307Z 07013KT 10/09 A3015 RMK A01 T00970088  RH  094%=      5-min Rain = 0
KAD1 230308Z 07011KT 10/09 A3015 RMK A01 T00970088  RH  094%=      5-min Rain = 0
KAD1 230309Z 07011KT 10/09 A3015 RMK A01 T00970089  RH  094%=      5-min Rain = 0
KAD1 230310Z 07011KT 10/09 A3015 RMK A01 T00970088  RH  094%=      5-min Rain = 0
KAD1 230311Z 07012KT 10/09 A3015 RMK A01 T00970089  RH  094%=      5-min Rain = 0
KAD1 230312Z 07011KT 10/09 A3015 RMK A01 T00970089  RH  095%=      5-min Rain = 0
KAD1 230313Z 07012KT 10/09 A3015 RMK A01 T00970089  RH  095%=      5-min Rain = 0
KAD1 230314Z 06011KT 10/09 A3015 RMK A01 T00970089  RH  095%=      5-min Rain = 0
KAD1 230315Z 06010KT 10/09 A3014 RMK A01 T00970089  RH  095%=      5-min Rain = 0
KAD1 230316Z 06012KT 10/09 A3014 RMK A01 T00970089  RH  095%=      5-min Rain = 0
KAD1 230317Z 06012KT 10/09 A3014 RMK A01 T00960088  RH  095%=      5-min Rain = 0
KAD1 230318Z 06012KT 10/09 A3014 RMK A01 T00960088  RH  095%=      5-min Rain = 0
KAD1 230319Z 06011KT 10/09 A3014 RMK A01 T00960088  RH  094%=      5-min Rain = 0
KAD1 230320Z 06013KT 10/09 A3014 RMK A01 T00960088  RH  094%=      5-min Rain = 0
KAD1 230321Z 06011KT 10/09 A3014 RMK A01 T00960088  RH  094%=      5-min Rain = 0
KAD1 230322Z 06010KT 10/09 A3014 RMK A01 T00960088  RH  094%=      5-min Rain = 0
KAD1 230323Z 05012KT 10/09 A3014 RMK A01 T00960088  RH  094%=      5-min Rain = 0
KAD1 230324Z 05012KT 10/09 A3014 RMK A01 T00960087  RH  094%=      5-min Rain = 0
KAD1 230325Z 05013KT 10/09 A3014 RMK A01 T00960087  RH  094%=      5-min Rain = 0
KAD1 230326Z 05013KT 10/09 A3014 RMK A01 T00960088  RH  095%=      5-min Rain = 0
KAD1 230327Z 06011KT 10/09 A3014 RMK A01 T00960087  RH  095%=      5-min Rain = 0
KAD1 230328Z 05012KT 10/09 A3014 RMK A01 T00950087  RH  095%=      5-min Rain = 0
KAD1 230329Z 05013KT 10/09 A3014 RMK A01 T00950088  RH  095%=      5-min Rain = 0
KAD1 230330Z 05013KT 10/09 A3014 RMK A01 T00960088  RH  095%=      5-min Rain = 0
KAD1 230331Z 05013KT 10/09 A3014 RMK A01 T00950087  RH  095%=      5-min Rain = 0
KAD1 230332Z 05014KT 10/09 A3014 RMK A01 T00950087  RH  095%=      5-min Rain = 0
KAD1 230333Z 06013KT 10/09 A3014 RMK A01 T00950087  RH  095%=      5-min Rain = 0
KAD1 230334Z 05011KT 10/09 A3014 RMK A01 T00950087  RH  095%=      5-min Rain = 0
KAD1 230335Z 05012KT 10/09 A3014 RMK A01 T00960087  RH  095%=      5-min Rain = 0
KAD1 230336Z 05011KT 10/09 A3014 RMK A01 T00950087  RH  095%=      5-min Rain = 0
KAD1 230337Z 05012KT 10/09 A3014 RMK A01 T00950087  RH  095%=      5-min Rain = 0
KAD1 230338Z 06011KT 10/09 A3014 RMK A01 T00950087  RH  095%=      5-min Rain = 0
KAD1 230339Z 06010KT 10/09 A3014 RMK A01 T00950087  RH  095%=      5-min Rain = 0
KAD1 230340Z 05010KT 10/09 A3014 RMK A01 T00950087  RH  095%=      5-min Rain = 0
KAD1 230341Z 05012KT 10/09 A3014 RMK A01 T00950087  RH  095%=      5-min Rain = 0
KAD1 230342Z 05010KT 10/09 A3015 RMK A01 T00950087  RH  095%=      5-min Rain = 0
KAD1 230343Z 05010KT 10/09 A3015 RMK A01 T00950087  RH  095%=      5-min Rain = 0
KAD1 230344Z 05009KT 10/09 A3015 RMK A01 T00950087  RH  095%=      5-min Rain = 0
KAD1 230345Z 05009KT 10/09 A3015 RMK A01 T00950088  RH  095%=      5-min Rain = 0
KAD1 230346Z 05011KT 10/09 A3015 RMK A01 T00950088  RH  095%=      5-min Rain = 0
KAD1 230347Z 05012KT 10/09 A3015 RMK A01 T00950088  RH  095%=      5-min Rain = 0
KAD1 230348Z 05011KT 10/09 A3015 RMK A01 T00950087  RH  095%=      5-min Rain = 0
KAD1 230349Z 05011KT 10/09 A3015 RMK A01 T00950087  RH  095%=      5-min Rain = 0
KAD1 230350Z 05010KT 10/09 A3015 RMK A01 T00950087  RH  094%=      5-min Rain = 0
KAD1 230351Z 05010KT 10/09 A3015 RMK A01 T00950086  RH  095%=      5-min Rain = 0
KAD1 230352Z 05011KT 10/09 A3015 RMK A01 T00950087  RH  095%=      5-min Rain = 0
KAD1 230353Z 05012KT 10/09 A3015 RMK A01 T00950087  RH  095%=      5-min Rain = 0
KAD1 230354Z 05011KT 10/09 A3015 RMK A01 T00950087  RH  095%=      5-min Rain = 0
KAD1 230355Z 05011KT 10/09 A3015 RMK A01 T00950087  RH  095%=      5-min Rain = 0
KAD1 230356Z 05011KT 10/09 A3015 RMK A01 T00950088  RH  095%=      5-min Rain = 0
KAD1 230357Z 04011KT 10/09 A3014 RMK A01 T00950088  RH  095%=      5-min Rain = 0
KAD1 230358Z 05012KT 10/09 A3014 RMK A01 T00950088  RH  095%=      5-min Rain = 0
KAD1 230359Z 05012KT 10/09 A3014 RMK A01 T00950087  RH  095%=      5-min Rain = 0
KAD1 230400Z 05010KT 09/09 A3014 RMK A01 T00940087  RH  095%=      5-min Rain = 0
KAD1 230401Z 05011KT 09/09 A3014 RMK A01 T00940087  RH  095%=      5-min Rain = 0
KAD1 230402Z 05011KT 09/09 A3014 RMK A01 T00940087  RH  095%=      5-min Rain = 0
KAD1 230403Z 05011KT 10/09 A3014 RMK A01 T00950087  RH  095%=      5-min Rain = 0
KAD1 230404Z 05010KT 10/09 A3014 RMK A01 T00950087  RH  095%=      5-min Rain = 0
KAD1 230405Z 05011KT 09/09 A3014 RMK A01 T00940087  RH  095%=      5-min Rain = 0
KAD1 230406Z 05010KT 10/09 A3014 RMK A01 T00950087  RH  095%=      5-min Rain = 0
KAD1 230407Z 05010KT 10/09 A3014 RMK A01 T00950088  RH  095%=      5-min Rain = 0
KAD1 230408Z 05011KT 10/09 A3014 RMK A01 T00950088  RH  095%=      5-min Rain = 0
KAD1 230409Z 05010KT 10/09 A3014 RMK A01 T00950088  RH  096%=      5-min Rain = 0
KAD1 230410Z 05011KT 09/09 A3014 RMK A01 T00940088  RH  095%=      5-min Rain = 0
KAD1 230411Z 06011KT 10/09 A3014 RMK A01 T00950088  RH  095%=      5-min Rain = 0
KAD1 230412Z 05009KT 10/09 A3014 RMK A01 T00950088  RH  095%=      5-min Rain = 0
KAD1 230413Z 06011KT 10/09 A3014 RMK A01 T00950088  RH  096%=      5-min Rain = 0
KAD1 230414Z 06010KT 09/09 A3014 RMK A01 T00940088  RH  096%=      5-min Rain = 0
KAD1 230415Z 06011KT 10/09 A3014 RMK A01 T00950088  RH  096%=      5-min Rain = 0
KAD1 230416Z 06010KT 10/09 A3014 RMK A01 T00950088  RH  096%=      5-min Rain = 0
KAD1 230417Z 06011KT 10/09 A3014 RMK A01 T00950088  RH  096%=      5-min Rain = 0
KAD1 230418Z 05011KT 10/09 A3014 RMK A01 T00950088  RH  096%=      5-min Rain = 0
KAD1 230419Z 06011KT 09/09 A3014 RMK A01 T00940088  RH  096%=      5-min Rain = 0
KAD1 230420Z 06011KT 09/09 A3014 RMK A01 T00940088  RH  096%=      5-min Rain = 0
KAD1 230421Z 06011KT 09/09 A3014 RMK A01 T00940088  RH  096%=      5-min Rain = 0
KAD1 230422Z 06011KT 10/09 A3014 RMK A01 T00950088  RH  096%=      5-min Rain = 0
KAD1 230423Z 06011KT 09/09 A3014 RMK A01 T00940088  RH  096%=      5-min Rain = 0
KAD1 230424Z 06010KT 10/09 A3015 RMK A01 T00950088  RH  096%=      5-min Rain = 0
KAD1 230425Z 06010KT 10/09 A3015 RMK A01 T00950088  RH  096%=      5-min Rain = 0
KAD1 230426Z 07010KT 09/09 A3015 RMK A01 T00940088  RH  096%=      5-min Rain = 0
KAD1 230427Z 07010KT 10/09 A3015 RMK A01 T00950088  RH  096%=      5-min Rain = 0
KAD1 230428Z 06011KT 10/09 A3015 RMK A01 T00950088  RH  096%=      5-min Rain = 0
KAD1 230429Z 07010KT 09/09 A3015 RMK A01 T00940088  RH  096%=      5-min Rain = 0
KAD1 230430Z 07012KT 09/09 A3015 RMK A01 T00940088  RH  096%=      5-min Rain = 0
KAD1 230431Z 07011KT 09/09 A3015 RMK A01 T00940088  RH  096%=      5-min Rain = 0
KAD1 230432Z 07010KT 09/09 A3015 RMK A01 T00940088  RH  096%=      5-min Rain = 0
KAD1 230433Z 07012KT 09/09 A3015 RMK A01 T00940088  RH  096%=      5-min Rain = 0
KAD1 230434Z 07013KT 09/09 A3014 RMK A01 T00940088  RH  096%=      5-min Rain = 0
KAD1 230435Z 06012KT 09/09 A3014 RMK A01 T00940088  RH  096%=      5-min Rain = 0
KAD1 230436Z 06011KT 09/09 A3014 RMK A01 T00940088  RH  096%=      5-min Rain = 0
KAD1 230437Z 06011KT 09/09 A3014 RMK A01 T00940088  RH  096%=      5-min Rain = 0
KAD1 230438Z 06011KT 09/09 A3014 RMK A01 T00940088  RH  096%=      5-min Rain = 0
KAD1 230439Z 06010G15KT 09/09 A3014 RMK A01 T00940088  RH  096%=      5-min Rain = 0
KAD1 230440Z 06012KT 09/09 A3014 RMK A01 T00940087  RH  096%=      5-min Rain = 0
KAD1 230441Z 06011KT 09/09 A3014 RMK A01 T00940087  RH  096%=      5-min Rain = 0
KAD1 230442Z 06009KT 09/09 A3014 RMK A01 T00940088  RH  096%=      5-min Rain = 0
KAD1 230443Z 06011KT 09/09 A3014 RMK A01 T00940088  RH  096%=      5-min Rain = 0
KAD1 230444Z 06011KT 09/09 A3014 RMK A01 T00940088  RH  096%=      5-min Rain = 0
KAD1 230445Z 07010KT 09/09 A3014 RMK A01 T00940088  RH  096%=      5-min Rain = 0
KAD1 230446Z 07011KT 09/09 A3014 RMK A01 T00940088  RH  096%=      5-min Rain = 0
KAD1 230447Z 06012KT 09/09 A3014 RMK A01 T00940088  RH  096%=      5-min Rain = 0
KAD1 230448Z 06011KT 09/09 A3014 RMK A01 T00930087  RH  096%=      5-min Rain = 0
KAD1 230449Z 06010KT 09/09 A3014 RMK A01 T00930087  RH  096%=      5-min Rain = 0
KAD1 230450Z 06012KT 09/09 A3014 RMK A01 T00930087  RH  096%=      5-min Rain = 0
KAD1 230451Z 06011KT 09/09 A3014 RMK A01 T00930087  RH  096%=      5-min Rain = 0
KAD1 230452Z 07012KT 09/09 A3014 RMK A01 T00940088  RH  096%=      5-min Rain = 0
KAD1 230453Z 07010KT 09/09 A3014 RMK A01 T00930087  RH  096%=      5-min Rain = 0
KAD1 230454Z 07011KT 09/09 A3014 RMK A01 T00930088  RH  096%=      5-min Rain = 0
KAD1 230455Z 07010KT 09/09 A3014 RMK A01 T00930088  RH  096%=      5-min Rain = 0
KAD1 230456Z 07010KT 09/09 A3014 RMK A01 T00930087  RH  096%=      5-min Rain = 0
KAD1 230457Z 07012KT 09/09 A3014 RMK A01 T00930087  RH  097%=      5-min Rain = 0
KAD1 230458Z 07012KT 09/09 A3014 RMK A01 T00930088  RH  097%=      5-min Rain = 0
KAD1 230459Z 07012KT 09/09 A3014 RMK A01 T00930088  RH  097%=      5-min Rain = 0

Page generated in 0.0842 seconds.